<?xml version="1.0" encoding="utf-8"?>
<gpx xmlns:xsi="http://www.w3.org/2001/XMLSchema-instance" xmlns:xsd="http://www.w3.org/2001/XMLSchema" version="1.1" creator="Shapelink.com" xmlns="http://www.topografix.com/GPX/1/1" xmlns:gpxtpx="http://www.garmin.com/xmlschemas/TrackPointExtension/v1">
  <metadata>
    <name>Ejecutar 9.52 km, 2020-03-24</name>
    <desc></desc>
    <author><name>Per Rooth</name></author> 
    <time>2020-03-24T18:04:31Z</time>
  </metadata>
  <trk>
    <name>Ejecutar 9.52 km, 2020-03-24</name>
    <trkseg>
      <trkpt lat="56.891109576608" lon="14.824171594537">
        <ele>172.4</ele>
        <time>2020-03-24T18:04:31Z</time>
      </trkpt>
      <trkpt lat="56.89106079395" lon="14.82424175104">
        <ele>173.6</ele>
        <time>2020-03-24T18:04:35Z</time>
      </trkpt>
      <trkpt lat="56.890943866445" lon="14.824540230499">
        <ele>174</ele>
        <time>2020-03-24T18:04:43Z</time>
      </trkpt>
      <trkpt lat="56.890816545384" lon="14.824783473237">
        <ele>172</ele>
        <time>2020-03-24T18:04:51Z</time>
      </trkpt>
      <trkpt lat="56.890742449388" lon="14.825009616899">
        <ele>170.6</ele>
        <time>2020-03-24T18:04:56Z</time>
      </trkpt>
      <trkpt lat="56.890671287057" lon="14.82517214194">
        <ele>169.2</ele>
        <time>2020-03-24T18:05:00Z</time>
      </trkpt>
      <trkpt lat="56.890650583764" lon="14.825209776671">
        <ele>169</ele>
        <time>2020-03-24T18:05:01Z</time>
      </trkpt>
      <trkpt lat="56.890519155572" lon="14.82543868636">
        <ele>169</ele>
        <time>2020-03-24T18:05:09Z</time>
      </trkpt>
      <trkpt lat="56.890430558889" lon="14.825760048406">
        <ele>169</ele>
        <time>2020-03-24T18:05:16Z</time>
      </trkpt>
      <trkpt lat="56.890396863651" lon="14.825914945918">
        <ele>168</ele>
        <time>2020-03-24T18:05:19Z</time>
      </trkpt>
      <trkpt lat="56.890386218638" lon="14.825995998891">
        <ele>167.6</ele>
        <time>2020-03-24T18:05:20Z</time>
      </trkpt>
      <trkpt lat="56.890332825935" lon="14.82635147527">
        <ele>167.4</ele>
        <time>2020-03-24T18:05:27Z</time>
      </trkpt>
      <trkpt lat="56.890311032995" lon="14.82670351507">
        <ele>167.6</ele>
        <time>2020-03-24T18:05:34Z</time>
      </trkpt>
      <trkpt lat="56.890305668579" lon="14.82696000121">
        <ele>167.4</ele>
        <time>2020-03-24T18:05:39Z</time>
      </trkpt>
      <trkpt lat="56.890262585613" lon="14.82731371739">
        <ele>167.2</ele>
        <time>2020-03-24T18:05:47Z</time>
      </trkpt>
      <trkpt lat="56.890258227025" lon="14.827410360697">
        <ele>166.8</ele>
        <time>2020-03-24T18:05:49Z</time>
      </trkpt>
      <trkpt lat="56.890232494592" lon="14.827686376664">
        <ele>166.8</ele>
        <time>2020-03-24T18:05:56Z</time>
      </trkpt>
      <trkpt lat="56.890228974194" lon="14.827904222245">
        <ele>167</ele>
        <time>2020-03-24T18:06:02Z</time>
      </trkpt>
      <trkpt lat="56.890157811863" lon="14.82817705309">
        <ele>167</ele>
        <time>2020-03-24T18:06:09Z</time>
      </trkpt>
      <trkpt lat="56.890030909897" lon="14.828346451289">
        <ele>167.4</ele>
        <time>2020-03-24T18:06:15Z</time>
      </trkpt>
      <trkpt lat="56.88993510478" lon="14.828666388412">
        <ele>166.8</ele>
        <time>2020-03-24T18:06:22Z</time>
      </trkpt>
      <trkpt lat="56.889894368746" lon="14.828846683081">
        <ele>167.2</ele>
        <time>2020-03-24T18:06:26Z</time>
      </trkpt>
      <trkpt lat="56.88985380035" lon="14.829212636835">
        <ele>167.2</ele>
        <time>2020-03-24T18:06:33Z</time>
      </trkpt>
      <trkpt lat="56.889825134252" lon="14.829353788031">
        <ele>167</ele>
        <time>2020-03-24T18:06:36Z</time>
      </trkpt>
      <trkpt lat="56.889649784904" lon="14.829460154342">
        <ele>166.6</ele>
        <time>2020-03-24T18:06:45Z</time>
      </trkpt>
      <trkpt lat="56.889506538233" lon="14.829549002482">
        <ele>167.2</ele>
        <time>2020-03-24T18:06:50Z</time>
      </trkpt>
      <trkpt lat="56.889327165573" lon="14.829594516199">
        <ele>166.2</ele>
        <time>2020-03-24T18:06:58Z</time>
      </trkpt>
      <trkpt lat="56.889281987132" lon="14.829613543112">
        <ele>166</ele>
        <time>2020-03-24T18:07:00Z</time>
      </trkpt>
      <trkpt lat="56.889232198646" lon="14.829644639961">
        <ele>165.8</ele>
        <time>2020-03-24T18:07:02Z</time>
      </trkpt>
      <trkpt lat="56.889040169317" lon="14.829724268011">
        <ele>166.4</ele>
        <time>2020-03-24T18:07:11Z</time>
      </trkpt>
      <trkpt lat="56.888955428308" lon="14.829727201676">
        <ele>165.6</ele>
        <time>2020-03-24T18:07:14Z</time>
      </trkpt>
      <trkpt lat="56.888757196373" lon="14.829780845836">
        <ele>165.8</ele>
        <time>2020-03-24T18:07:21Z</time>
      </trkpt>
      <trkpt lat="56.888620990498" lon="14.830032470474">
        <ele>165.8</ele>
        <time>2020-03-24T18:07:28Z</time>
      </trkpt>
      <trkpt lat="56.888530633616" lon="14.830345702077">
        <ele>165.6</ele>
        <time>2020-03-24T18:07:35Z</time>
      </trkpt>
      <trkpt lat="56.888503224803" lon="14.830467742541">
        <ele>165.6</ele>
        <time>2020-03-24T18:07:38Z</time>
      </trkpt>
      <trkpt lat="56.88855125309" lon="14.830510909326">
        <ele>166.2</ele>
        <time>2020-03-24T18:07:43Z</time>
      </trkpt>
      <trkpt lat="56.888631384054" lon="14.830545945668">
        <ele>166.8</ele>
        <time>2020-03-24T18:07:48Z</time>
      </trkpt>
      <trkpt lat="56.888776139467" lon="14.830729174002">
        <ele>167.8</ele>
        <time>2020-03-24T18:07:56Z</time>
      </trkpt>
      <trkpt lat="56.888892480239" lon="14.830881724582">
        <ele>169.2</ele>
        <time>2020-03-24T18:08:02Z</time>
      </trkpt>
      <trkpt lat="56.888946292037" lon="14.830954228017">
        <ele>170.2</ele>
        <time>2020-03-24T18:08:05Z</time>
      </trkpt>
      <trkpt lat="56.889056011108" lon="14.831066545477">
        <ele>171.4</ele>
        <time>2020-03-24T18:08:10Z</time>
      </trkpt>
      <trkpt lat="56.889154246976" lon="14.831152795228">
        <ele>172.4</ele>
        <time>2020-03-24T18:08:14Z</time>
      </trkpt>
      <trkpt lat="56.88926706735" lon="14.831263101032">
        <ele>173.4</ele>
        <time>2020-03-24T18:08:19Z</time>
      </trkpt>
      <trkpt lat="56.889386760882" lon="14.831395954147">
        <ele>174.8</ele>
        <time>2020-03-24T18:08:26Z</time>
      </trkpt>
      <trkpt lat="56.889441578508" lon="14.831445072081">
        <ele>175.8</ele>
        <time>2020-03-24T18:08:29Z</time>
      </trkpt>
      <trkpt lat="56.889485583483" lon="14.831476420387">
        <ele>176.6</ele>
        <time>2020-03-24T18:08:31Z</time>
      </trkpt>
      <trkpt lat="56.889506286776" lon="14.831489831427">
        <ele>176.8</ele>
        <time>2020-03-24T18:08:32Z</time>
      </trkpt>
      <trkpt lat="56.88958306498" lon="14.83156082612">
        <ele>178</ele>
        <time>2020-03-24T18:08:36Z</time>
      </trkpt>
      <trkpt lat="56.889661938659" lon="14.831687057534">
        <ele>179.2</ele>
        <time>2020-03-24T18:08:40Z</time>
      </trkpt>
      <trkpt lat="56.889770232807" lon="14.831928372435">
        <ele>178.2</ele>
        <time>2020-03-24T18:08:46Z</time>
      </trkpt>
      <trkpt lat="56.88990576813" lon="14.832187289326">
        <ele>178.2</ele>
        <time>2020-03-24T18:08:53Z</time>
      </trkpt>
      <trkpt lat="56.890024539653" lon="14.83248032055">
        <ele>177.2</ele>
        <time>2020-03-24T18:09:01Z</time>
      </trkpt>
      <trkpt lat="56.890038956521" lon="14.832514602521">
        <ele>177.2</ele>
        <time>2020-03-24T18:09:02Z</time>
      </trkpt>
      <trkpt lat="56.890164852659" lon="14.832805202994">
        <ele>177.6</ele>
        <time>2020-03-24T18:09:10Z</time>
      </trkpt>
      <trkpt lat="56.890308183149" lon="14.833042829859">
        <ele>177.8</ele>
        <time>2020-03-24T18:09:17Z</time>
      </trkpt>
      <trkpt lat="56.890337268342" lon="14.833076860373">
        <ele>178.2</ele>
        <time>2020-03-24T18:09:18Z</time>
      </trkpt>
      <trkpt lat="56.890362078766" lon="14.833110890887">
        <ele>178.6</ele>
        <time>2020-03-24T18:09:19Z</time>
      </trkpt>
      <trkpt lat="56.890407089569" lon="14.833175096241">
        <ele>179.4</ele>
        <time>2020-03-24T18:09:21Z</time>
      </trkpt>
      <trkpt lat="56.890493004044" lon="14.83327911562">
        <ele>180.8</ele>
        <time>2020-03-24T18:09:25Z</time>
      </trkpt>
      <trkpt lat="56.890555952113" lon="14.833354971815">
        <ele>182.2</ele>
        <time>2020-03-24T18:09:28Z</time>
      </trkpt>
      <trkpt lat="56.890680088052" lon="14.833467792189">
        <ele>183.2</ele>
        <time>2020-03-24T18:09:32Z</time>
      </trkpt>
      <trkpt lat="56.890723673932" lon="14.833477431374">
        <ele>183.4</ele>
        <time>2020-03-24T18:09:34Z</time>
      </trkpt>
      <trkpt lat="56.890886534249" lon="14.83362277352">
        <ele>183.8</ele>
        <time>2020-03-24T18:09:41Z</time>
      </trkpt>
      <trkpt lat="56.89092919812" lon="14.833667449047">
        <ele>184.4</ele>
        <time>2020-03-24T18:09:43Z</time>
      </trkpt>
      <trkpt lat="56.890979992434" lon="14.833700892828">
        <ele>185.2</ele>
        <time>2020-03-24T18:09:46Z</time>
      </trkpt>
      <trkpt lat="56.890995582768" lon="14.833712711307">
        <ele>185.6</ele>
        <time>2020-03-24T18:09:47Z</time>
      </trkpt>
      <trkpt lat="56.891132375376" lon="14.833775491738">
        <ele>186.6</ele>
        <time>2020-03-24T18:09:53Z</time>
      </trkpt>
      <trkpt lat="56.891335217356" lon="14.833774737367">
        <ele>185.4</ele>
        <time>2020-03-24T18:10:00Z</time>
      </trkpt>
      <trkpt lat="56.891508135953" lon="14.83369569605">
        <ele>184.6</ele>
        <time>2020-03-24T18:10:07Z</time>
      </trkpt>
      <trkpt lat="56.891532024368" lon="14.833681027725">
        <ele>184.2</ele>
        <time>2020-03-24T18:10:08Z</time>
      </trkpt>
      <trkpt lat="56.89173972785" lon="14.833587150445">
        <ele>183.2</ele>
        <time>2020-03-24T18:10:16Z</time>
      </trkpt>
      <trkpt lat="56.891913903732" lon="14.833506516567">
        <ele>183.6</ele>
        <time>2020-03-24T18:10:23Z</time>
      </trkpt>
      <trkpt lat="56.892109788735" lon="14.833435102779">
        <ele>183.4</ele>
        <time>2020-03-24T18:10:31Z</time>
      </trkpt>
      <trkpt lat="56.892198720694" lon="14.833411046726">
        <ele>181.8</ele>
        <time>2020-03-24T18:10:34Z</time>
      </trkpt>
      <trkpt lat="56.892247000438" lon="14.833383554094">
        <ele>180.8</ele>
        <time>2020-03-24T18:10:36Z</time>
      </trkpt>
      <trkpt lat="56.89234238646" lon="14.833366957932">
        <ele>179.6</ele>
        <time>2020-03-24T18:10:40Z</time>
      </trkpt>
      <trkpt lat="56.892527542631" lon="14.833424709223">
        <ele>179.4</ele>
        <time>2020-03-24T18:10:45Z</time>
      </trkpt>
      <trkpt lat="56.892746226402" lon="14.833544570393">
        <ele>179.2</ele>
        <time>2020-03-24T18:10:50Z</time>
      </trkpt>
      <trkpt lat="56.892906404511" lon="14.833649092686">
        <ele>178.6</ele>
        <time>2020-03-24T18:10:53Z</time>
      </trkpt>
      <trkpt lat="56.893079658384" lon="14.833863753145">
        <ele>178.6</ele>
        <time>2020-03-24T18:10:58Z</time>
      </trkpt>
      <trkpt lat="56.89322835329" lon="14.834118479086">
        <ele>178</ele>
        <time>2020-03-24T18:11:05Z</time>
      </trkpt>
      <trkpt lat="56.893249978592" lon="14.834158879844">
        <ele>177.8</ele>
        <time>2020-03-24T18:11:06Z</time>
      </trkpt>
      <trkpt lat="56.893263808727" lon="14.834193497091">
        <ele>177.6</ele>
        <time>2020-03-24T18:11:07Z</time>
      </trkpt>
      <trkpt lat="56.893307059331" lon="14.8345213132">
        <ele>177</ele>
        <time>2020-03-24T18:11:14Z</time>
      </trkpt>
      <trkpt lat="56.893324493683" lon="14.834860025779">
        <ele>177</ele>
        <time>2020-03-24T18:11:23Z</time>
      </trkpt>
      <trkpt lat="56.893343352958" lon="14.834886428764">
        <ele>177</ele>
        <time>2020-03-24T18:11:25Z</time>
      </trkpt>
      <trkpt lat="56.893390543055" lon="14.83495465743">
        <ele>177.2</ele>
        <time>2020-03-24T18:11:29Z</time>
      </trkpt>
      <trkpt lat="56.893414347651" lon="14.83499153779">
        <ele>177.2</ele>
        <time>2020-03-24T18:11:31Z</time>
      </trkpt>
      <trkpt lat="56.893582404746" lon="14.835240396401">
        <ele>176.8</ele>
        <time>2020-03-24T18:11:39Z</time>
      </trkpt>
      <trkpt lat="56.893638898752" lon="14.835315582044">
        <ele>176.4</ele>
        <time>2020-03-24T18:11:41Z</time>
      </trkpt>
      <trkpt lat="56.893756999723" lon="14.835452626109">
        <ele>176.6</ele>
        <time>2020-03-24T18:11:45Z</time>
      </trkpt>
      <trkpt lat="56.89390980176" lon="14.835598638807">
        <ele>176.6</ele>
        <time>2020-03-24T18:11:51Z</time>
      </trkpt>
      <trkpt lat="56.893972246915" lon="14.835684469463">
        <ele>176.8</ele>
        <time>2020-03-24T18:11:55Z</time>
      </trkpt>
      <trkpt lat="56.893999068995" lon="14.835715482493">
        <ele>176.8</ele>
        <time>2020-03-24T18:11:56Z</time>
      </trkpt>
      <trkpt lat="56.894032931871" lon="14.835772814689">
        <ele>176.8</ele>
        <time>2020-03-24T18:11:58Z</time>
      </trkpt>
      <trkpt lat="56.894270055822" lon="14.836087638853">
        <ele>176.2</ele>
        <time>2020-03-24T18:14:51Z</time>
      </trkpt>
      <trkpt lat="56.894200402233" lon="14.836121334091">
        <ele>177</ele>
        <time>2020-03-24T18:14:55Z</time>
      </trkpt>
      <trkpt lat="56.894176597637" lon="14.836136589149">
        <ele>177.6</ele>
        <time>2020-03-24T18:14:56Z</time>
      </trkpt>
      <trkpt lat="56.894045923816" lon="14.836237842501">
        <ele>176.2</ele>
        <time>2020-03-24T18:15:01Z</time>
      </trkpt>
      <trkpt lat="56.893897312729" lon="14.836484857094">
        <ele>176</ele>
        <time>2020-03-24T18:15:07Z</time>
      </trkpt>
      <trkpt lat="56.893853978306" lon="14.836571442121">
        <ele>176.2</ele>
        <time>2020-03-24T18:15:10Z</time>
      </trkpt>
      <trkpt lat="56.893999739547" lon="14.836358709499">
        <ele>175.2</ele>
        <time>2020-03-24T18:15:16Z</time>
      </trkpt>
      <trkpt lat="56.894162516045" lon="14.836175145889">
        <ele>175.4</ele>
        <time>2020-03-24T18:15:23Z</time>
      </trkpt>
      <trkpt lat="56.894178106379" lon="14.836149581094">
        <ele>175.6</ele>
        <time>2020-03-24T18:15:24Z</time>
      </trkpt>
      <trkpt lat="56.894344654732" lon="14.836233232456">
        <ele>176</ele>
        <time>2020-03-24T18:16:41Z</time>
      </trkpt>
      <trkpt lat="56.894363933102" lon="14.836221330158">
        <ele>176.2</ele>
        <time>2020-03-24T18:16:44Z</time>
      </trkpt>
      <trkpt lat="56.894376841228" lon="14.83621194243">
        <ele>177.4</ele>
        <time>2020-03-24T18:16:45Z</time>
      </trkpt>
      <trkpt lat="56.894450182853" lon="14.836182102866">
        <ele>175.4</ele>
        <time>2020-03-24T18:16:46Z</time>
      </trkpt>
      <trkpt lat="56.894511119266" lon="14.836181432314">
        <ele>175.8</ele>
        <time>2020-03-24T18:16:49Z</time>
      </trkpt>
      <trkpt lat="56.894662831656" lon="14.836387543235">
        <ele>176.4</ele>
        <time>2020-03-24T18:16:56Z</time>
      </trkpt>
      <trkpt lat="56.894672806117" lon="14.836435571522">
        <ele>176.6</ele>
        <time>2020-03-24T18:16:57Z</time>
      </trkpt>
      <trkpt lat="56.894669034262" lon="14.836636988579">
        <ele>178.2</ele>
        <time>2020-03-24T18:17:00Z</time>
      </trkpt>
      <trkpt lat="56.894605080365" lon="14.837010821319">
        <ele>179.2</ele>
        <time>2020-03-24T18:17:05Z</time>
      </trkpt>
      <trkpt lat="56.894508437058" lon="14.837385911344">
        <ele>178.8</ele>
        <time>2020-03-24T18:17:10Z</time>
      </trkpt>
      <trkpt lat="56.894480022417" lon="14.837574252637">
        <ele>177.8</ele>
        <time>2020-03-24T18:17:12Z</time>
      </trkpt>
      <trkpt lat="56.89447138906" lon="14.837661005302">
        <ele>177.4</ele>
        <time>2020-03-24T18:17:13Z</time>
      </trkpt>
      <trkpt lat="56.894454038527" lon="14.837832918071">
        <ele>177.2</ele>
        <time>2020-03-24T18:17:15Z</time>
      </trkpt>
      <trkpt lat="56.89444959612" lon="14.838005920487">
        <ele>177.2</ele>
        <time>2020-03-24T18:17:17Z</time>
      </trkpt>
      <trkpt lat="56.89447893277" lon="14.838209935933">
        <ele>177.2</ele>
        <time>2020-03-24T18:17:20Z</time>
      </trkpt>
      <trkpt lat="56.894500641891" lon="14.838342956686">
        <ele>176.8</ele>
        <time>2020-03-24T18:17:22Z</time>
      </trkpt>
      <trkpt lat="56.894592842791" lon="14.838683178007">
        <ele>175.4</ele>
        <time>2020-03-24T18:17:27Z</time>
      </trkpt>
      <trkpt lat="56.894657131964" lon="14.838808822688">
        <ele>174.2</ele>
        <time>2020-03-24T18:17:29Z</time>
      </trkpt>
      <trkpt lat="56.894761821895" lon="14.838980735457">
        <ele>173.4</ele>
        <time>2020-03-24T18:17:32Z</time>
      </trkpt>
      <trkpt lat="56.894812197114" lon="14.839128675992">
        <ele>172.8</ele>
        <time>2020-03-24T18:17:33Z</time>
      </trkpt>
      <trkpt lat="56.894879168495" lon="14.839318945122">
        <ele>172.2</ele>
        <time>2020-03-24T18:17:37Z</time>
      </trkpt>
      <trkpt lat="56.894908253688" lon="14.839387341426">
        <ele>171.6</ele>
        <time>2020-03-24T18:17:38Z</time>
      </trkpt>
      <trkpt lat="56.894932728836" lon="14.83945238497">
        <ele>171</ele>
        <time>2020-03-24T18:17:39Z</time>
      </trkpt>
      <trkpt lat="56.894954605595" lon="14.839514913944">
        <ele>170.8</ele>
        <time>2020-03-24T18:17:40Z</time>
      </trkpt>
      <trkpt lat="56.894979835114" lon="14.839585238085">
        <ele>170.4</ele>
        <time>2020-03-24T18:17:41Z</time>
      </trkpt>
      <trkpt lat="56.895002382425" lon="14.83966193247">
        <ele>169.8</ele>
        <time>2020-03-24T18:17:42Z</time>
      </trkpt>
      <trkpt lat="56.89501872713" lon="14.839745416194">
        <ele>169.2</ele>
        <time>2020-03-24T18:17:43Z</time>
      </trkpt>
      <trkpt lat="56.89503297636" lon="14.839832671773">
        <ele>168.6</ele>
        <time>2020-03-24T18:17:44Z</time>
      </trkpt>
      <trkpt lat="56.895052841463" lon="14.840010200415">
        <ele>167.8</ele>
        <time>2020-03-24T18:17:46Z</time>
      </trkpt>
      <trkpt lat="56.895092739307" lon="14.840297615766">
        <ele>167</ele>
        <time>2020-03-24T18:17:48Z</time>
      </trkpt>
      <trkpt lat="56.895102294673" lon="14.840527866559">
        <ele>167</ele>
        <time>2020-03-24T18:17:52Z</time>
      </trkpt>
      <trkpt lat="56.895114783704" lon="14.840685530098">
        <ele>167.4</ele>
        <time>2020-03-24T18:17:54Z</time>
      </trkpt>
      <trkpt lat="56.895161889982" lon="14.841076042819">
        <ele>168</ele>
        <time>2020-03-24T18:17:59Z</time>
      </trkpt>
      <trkpt lat="56.895209582993" lon="14.84130059392">
        <ele>167.6</ele>
        <time>2020-03-24T18:18:02Z</time>
      </trkpt>
      <trkpt lat="56.895247133905" lon="14.841511147248">
        <ele>167</ele>
        <time>2020-03-24T18:18:05Z</time>
      </trkpt>
      <trkpt lat="56.895269429759" lon="14.84162245888">
        <ele>166.6</ele>
        <time>2020-03-24T18:18:07Z</time>
      </trkpt>
      <trkpt lat="56.895343022841" lon="14.84195522031">
        <ele>166.6</ele>
        <time>2020-03-24T18:18:13Z</time>
      </trkpt>
      <trkpt lat="56.895386021988" lon="14.842142555775">
        <ele>166.6</ele>
        <time>2020-03-24T18:18:16Z</time>
      </trkpt>
      <trkpt lat="56.895471852644" lon="14.842474981929">
        <ele>166.8</ele>
        <time>2020-03-24T18:18:20Z</time>
      </trkpt>
      <trkpt lat="56.895525496804" lon="14.842794499957">
        <ele>166.8</ele>
        <time>2020-03-24T18:18:24Z</time>
      </trkpt>
      <trkpt lat="56.895555587825" lon="14.843061463472">
        <ele>167.8</ele>
        <time>2020-03-24T18:18:28Z</time>
      </trkpt>
      <trkpt lat="56.895608980528" lon="14.843272100619">
        <ele>169</ele>
        <time>2020-03-24T18:18:31Z</time>
      </trkpt>
      <trkpt lat="56.895724902205" lon="14.843570328621">
        <ele>168.8</ele>
        <time>2020-03-24T18:18:36Z</time>
      </trkpt>
      <trkpt lat="56.895794388156" lon="14.843774763162">
        <ele>167.8</ele>
        <time>2020-03-24T18:18:39Z</time>
      </trkpt>
      <trkpt lat="56.895914081688" lon="14.844111547904">
        <ele>167.2</ele>
        <time>2020-03-24T18:18:44Z</time>
      </trkpt>
      <trkpt lat="56.896063614784" lon="14.844386474224">
        <ele>167.2</ele>
        <time>2020-03-24T18:18:50Z</time>
      </trkpt>
      <trkpt lat="56.896113738546" lon="14.844453697062">
        <ele>166.6</ele>
        <time>2020-03-24T18:18:52Z</time>
      </trkpt>
      <trkpt lat="56.896269474248" lon="14.844697275076">
        <ele>165.8</ele>
        <time>2020-03-24T18:18:57Z</time>
      </trkpt>
      <trkpt lat="56.896303756219" lon="14.84473214378">
        <ele>165.6</ele>
        <time>2020-03-24T18:18:58Z</time>
      </trkpt>
      <trkpt lat="56.896456725894" lon="14.844922748186">
        <ele>165.8</ele>
        <time>2020-03-24T18:19:03Z</time>
      </trkpt>
      <trkpt lat="56.896556721961" lon="14.845045794478">
        <ele>166.8</ele>
        <time>2020-03-24T18:19:06Z</time>
      </trkpt>
      <trkpt lat="56.896704243401" lon="14.845233716676">
        <ele>167.6</ele>
        <time>2020-03-24T18:19:10Z</time>
      </trkpt>
      <trkpt lat="56.896878251645" lon="14.845449802058">
        <ele>166.4</ele>
        <time>2020-03-24T18:19:16Z</time>
      </trkpt>
      <trkpt lat="56.897059133047" lon="14.845554911084">
        <ele>166.2</ele>
        <time>2020-03-24T18:19:20Z</time>
      </trkpt>
      <trkpt lat="56.897268680547" lon="14.845720202152">
        <ele>166.2</ele>
        <time>2020-03-24T18:19:24Z</time>
      </trkpt>
      <trkpt lat="56.897431708502" lon="14.845876524587">
        <ele>166.6</ele>
        <time>2020-03-24T18:19:28Z</time>
      </trkpt>
      <trkpt lat="56.897457105659" lon="14.845906950884">
        <ele>167</ele>
        <time>2020-03-24T18:19:29Z</time>
      </trkpt>
      <trkpt lat="56.897520053728" lon="14.845957745198">
        <ele>168</ele>
        <time>2020-03-24T18:19:31Z</time>
      </trkpt>
      <trkpt lat="56.89765483468" lon="14.846003929467">
        <ele>169</ele>
        <time>2020-03-24T18:19:35Z</time>
      </trkpt>
      <trkpt lat="56.897840661403" lon="14.846034942497">
        <ele>167.8</ele>
        <time>2020-03-24T18:19:40Z</time>
      </trkpt>
      <trkpt lat="56.898050627998" lon="14.846073331599">
        <ele>168.2</ele>
        <time>2020-03-24T18:19:45Z</time>
      </trkpt>
      <trkpt lat="56.898140230509" lon="14.846114654366">
        <ele>167.6</ele>
        <time>2020-03-24T18:19:49Z</time>
      </trkpt>
      <trkpt lat="56.898198736171" lon="14.846159497531">
        <ele>167.6</ele>
        <time>2020-03-24T18:19:53Z</time>
      </trkpt>
      <trkpt lat="56.898233018142" lon="14.846166622146">
        <ele>167.6</ele>
        <time>2020-03-24T18:19:56Z</time>
      </trkpt>
      <trkpt lat="56.898319770807" lon="14.846128149225">
        <ele>167.8</ele>
        <time>2020-03-24T18:20:01Z</time>
      </trkpt>
      <trkpt lat="56.898382299781" lon="14.84611264271">
        <ele>167.6</ele>
        <time>2020-03-24T18:20:06Z</time>
      </trkpt>
      <trkpt lat="56.898441727452" lon="14.846226971826">
        <ele>167.4</ele>
        <time>2020-03-24T18:20:16Z</time>
      </trkpt>
      <trkpt lat="56.898479278364" lon="14.846263768367">
        <ele>167.4</ele>
        <time>2020-03-24T18:20:20Z</time>
      </trkpt>
      <trkpt lat="56.898477434346" lon="14.846279526339">
        <ele>167.6</ele>
        <time>2020-03-24T18:20:25Z</time>
      </trkpt>
      <trkpt lat="56.898472991939" lon="14.846281454176">
        <ele>167.8</ele>
        <time>2020-03-24T18:20:28Z</time>
      </trkpt>
      <trkpt lat="56.898465448229" lon="14.846295032854">
        <ele>167.8</ele>
        <time>2020-03-24T18:20:30Z</time>
      </trkpt>
      <trkpt lat="56.898449690257" lon="14.846295954863">
        <ele>167.8</ele>
        <time>2020-03-24T18:20:32Z</time>
      </trkpt>
      <trkpt lat="56.89843770414" lon="14.846308946808">
        <ele>167.8</ele>
        <time>2020-03-24T18:20:34Z</time>
      </trkpt>
      <trkpt lat="56.898397303382" lon="14.846336187983">
        <ele>167.8</ele>
        <time>2020-03-24T18:20:38Z</time>
      </trkpt>
      <trkpt lat="56.898353801321" lon="14.846305174953">
        <ele>167.8</ele>
        <time>2020-03-24T18:20:44Z</time>
      </trkpt>
      <trkpt lat="56.898281297886" lon="14.846275335389">
        <ele>167.6</ele>
        <time>2020-03-24T18:20:48Z</time>
      </trkpt>
      <trkpt lat="56.898090777299" lon="14.846137704591">
        <ele>167.4</ele>
        <time>2020-03-24T18:20:54Z</time>
      </trkpt>
      <trkpt lat="56.897897155409" lon="14.846102835887">
        <ele>168.2</ele>
        <time>2020-03-24T18:21:00Z</time>
      </trkpt>
      <trkpt lat="56.897709484668" lon="14.846024800398">
        <ele>167.6</ele>
        <time>2020-03-24T18:21:05Z</time>
      </trkpt>
      <trkpt lat="56.897563220513" lon="14.845930001109">
        <ele>166.4</ele>
        <time>2020-03-24T18:21:08Z</time>
      </trkpt>
      <trkpt lat="56.897396588341" lon="14.845798237641">
        <ele>166</ele>
        <time>2020-03-24T18:21:11Z</time>
      </trkpt>
      <trkpt lat="56.897211515989" lon="14.845661780309">
        <ele>166.8</ele>
        <time>2020-03-24T18:21:15Z</time>
      </trkpt>
      <trkpt lat="56.897025270171" lon="14.84559128853">
        <ele>167.4</ele>
        <time>2020-03-24T18:21:19Z</time>
      </trkpt>
      <trkpt lat="56.896984869413" lon="14.84556279007">
        <ele>167.4</ele>
        <time>2020-03-24T18:21:20Z</time>
      </trkpt>
      <trkpt lat="56.896804574744" lon="14.845366318334">
        <ele>166.6</ele>
        <time>2020-03-24T18:21:25Z</time>
      </trkpt>
      <trkpt lat="56.896762665244" lon="14.845322145721">
        <ele>168.4</ele>
        <time>2020-03-24T18:21:26Z</time>
      </trkpt>
      <trkpt lat="56.896681444633" lon="14.845236063608">
        <ele>169.6</ele>
        <time>2020-03-24T18:21:28Z</time>
      </trkpt>
      <trkpt lat="56.896642971712" lon="14.845196081945">
        <ele>168.4</ele>
        <time>2020-03-24T18:21:29Z</time>
      </trkpt>
      <trkpt lat="56.896481536318" lon="14.845014865267">
        <ele>169.2</ele>
        <time>2020-03-24T18:21:33Z</time>
      </trkpt>
      <trkpt lat="56.896330913575" lon="14.844768437407">
        <ele>168.8</ele>
        <time>2020-03-24T18:21:38Z</time>
      </trkpt>
      <trkpt lat="56.896186828714" lon="14.84454019827">
        <ele>168.4</ele>
        <time>2020-03-24T18:21:43Z</time>
      </trkpt>
      <trkpt lat="56.896010138262" lon="14.844272899479">
        <ele>167.8</ele>
        <time>2020-03-24T18:21:48Z</time>
      </trkpt>
      <trkpt lat="56.895944340347" lon="14.844158989458">
        <ele>167.8</ele>
        <time>2020-03-24T18:21:50Z</time>
      </trkpt>
      <trkpt lat="56.895835710923" lon="14.843890181925">
        <ele>168.8</ele>
        <time>2020-03-24T18:21:55Z</time>
      </trkpt>
      <trkpt lat="56.895740073444" lon="14.843568233146">
        <ele>169.2</ele>
        <time>2020-03-24T18:22:01Z</time>
      </trkpt>
      <trkpt lat="56.895672599149" lon="14.84321753445">
        <ele>168.8</ele>
        <time>2020-03-24T18:22:07Z</time>
      </trkpt>
      <trkpt lat="56.895664636344" lon="14.842839762217">
        <ele>168.6</ele>
        <time>2020-03-24T18:22:12Z</time>
      </trkpt>
      <trkpt lat="56.895595318031" lon="14.842482693277">
        <ele>167.2</ele>
        <time>2020-03-24T18:22:17Z</time>
      </trkpt>
      <trkpt lat="56.895522060225" lon="14.842166695647">
        <ele>166.8</ele>
        <time>2020-03-24T18:22:22Z</time>
      </trkpt>
      <trkpt lat="56.895448383324" lon="14.8417884205">
        <ele>166.4</ele>
        <time>2020-03-24T18:22:28Z</time>
      </trkpt>
      <trkpt lat="56.895434217913" lon="14.841713067219">
        <ele>166</ele>
        <time>2020-03-24T18:22:29Z</time>
      </trkpt>
      <trkpt lat="56.895418376122" lon="14.841637043386">
        <ele>166.2</ele>
        <time>2020-03-24T18:22:30Z</time>
      </trkpt>
      <trkpt lat="56.895387027816" lon="14.841500837511">
        <ele>166.4</ele>
        <time>2020-03-24T18:22:32Z</time>
      </trkpt>
      <trkpt lat="56.895333551294" lon="14.841303779042">
        <ele>167.2</ele>
        <time>2020-03-24T18:22:35Z</time>
      </trkpt>
      <trkpt lat="56.895253839425" lon="14.84096028878">
        <ele>167.6</ele>
        <time>2020-03-24T18:22:40Z</time>
      </trkpt>
      <trkpt lat="56.895197596876" lon="14.84027045841">
        <ele>167.2</ele>
        <time>2020-03-24T18:22:55Z</time>
      </trkpt>
      <trkpt lat="56.895196339591" lon="14.840243552511">
        <ele>167.2</ele>
        <time>2020-03-24T18:22:56Z</time>
      </trkpt>
      <trkpt lat="56.895204050939" lon="14.840084799325">
        <ele>167.4</ele>
        <time>2020-03-24T18:23:04Z</time>
      </trkpt>
      <trkpt lat="56.895183515284" lon="14.839985641448">
        <ele>167.6</ele>
        <time>2020-03-24T18:23:10Z</time>
      </trkpt>
      <trkpt lat="56.89512685364" lon="14.839992346968">
        <ele>167.6</ele>
        <time>2020-03-24T18:23:14Z</time>
      </trkpt>
      <trkpt lat="56.89512769183" lon="14.840028472957">
        <ele>167.6</ele>
        <time>2020-03-24T18:23:16Z</time>
      </trkpt>
      <trkpt lat="56.895143282164" lon="14.840101395487">
        <ele>167.4</ele>
        <time>2020-03-24T18:23:20Z</time>
      </trkpt>
      <trkpt lat="56.8951469702" lon="14.840141963883">
        <ele>167.4</ele>
        <time>2020-03-24T18:23:22Z</time>
      </trkpt>
      <trkpt lat="56.895164656009" lon="14.84023022529">
        <ele>167</ele>
        <time>2020-03-24T18:23:27Z</time>
      </trkpt>
      <trkpt lat="56.895169182235" lon="14.840269955496">
        <ele>167</ele>
        <time>2020-03-24T18:23:29Z</time>
      </trkpt>
      <trkpt lat="56.895179156696" lon="14.840337178334">
        <ele>167</ele>
        <time>2020-03-24T18:23:32Z</time>
      </trkpt>
      <trkpt lat="56.895173373185" lon="14.840397360376">
        <ele>166.8</ele>
        <time>2020-03-24T18:23:35Z</time>
      </trkpt>
      <trkpt lat="56.895173708461" lon="14.840482017566">
        <ele>167</ele>
        <time>2020-03-24T18:23:39Z</time>
      </trkpt>
      <trkpt lat="56.895191478089" lon="14.840469360897">
        <ele>167</ele>
        <time>2020-03-24T18:23:42Z</time>
      </trkpt>
      <trkpt lat="56.895218300169" lon="14.840422589895">
        <ele>167</ele>
        <time>2020-03-24T18:23:45Z</time>
      </trkpt>
      <trkpt lat="56.895198686523" lon="14.840052612829">
        <ele>166.6</ele>
        <time>2020-03-24T18:23:51Z</time>
      </trkpt>
      <trkpt lat="56.895169852787" lon="14.839911880728">
        <ele>169</ele>
        <time>2020-03-24T18:23:53Z</time>
      </trkpt>
      <trkpt lat="56.895153088987" lon="14.839853542704">
        <ele>168.4</ele>
        <time>2020-03-24T18:23:54Z</time>
      </trkpt>
      <trkpt lat="56.895128278563" lon="14.839799730906">
        <ele>170</ele>
        <time>2020-03-24T18:23:55Z</time>
      </trkpt>
      <trkpt lat="56.894989641937" lon="14.839505107121">
        <ele>170.4</ele>
        <time>2020-03-24T18:24:01Z</time>
      </trkpt>
      <trkpt lat="56.894960221468" lon="14.839409385823">
        <ele>171.2</ele>
        <time>2020-03-24T18:24:03Z</time>
      </trkpt>
      <trkpt lat="56.894853268424" lon="14.839210902431">
        <ele>172.2</ele>
        <time>2020-03-24T18:24:07Z</time>
      </trkpt>
      <trkpt lat="56.894718152196" lon="14.838977885611">
        <ele>173.4</ele>
        <time>2020-03-24T18:24:11Z</time>
      </trkpt>
      <trkpt lat="56.894639697612" lon="14.838746377533">
        <ele>174.6</ele>
        <time>2020-03-24T18:24:15Z</time>
      </trkpt>
      <trkpt lat="56.894611618247" lon="14.838576392601">
        <ele>176</ele>
        <time>2020-03-24T18:24:18Z</time>
      </trkpt>
      <trkpt lat="56.894583790339" lon="14.838269950337">
        <ele>177</ele>
        <time>2020-03-24T18:24:23Z</time>
      </trkpt>
      <trkpt lat="56.894553280223" lon="14.83783803103">
        <ele>178</ele>
        <time>2020-03-24T18:24:28Z</time>
      </trkpt>
      <trkpt lat="56.894549843644" lon="14.837749685804">
        <ele>178.2</ele>
        <time>2020-03-24T18:24:29Z</time>
      </trkpt>
      <trkpt lat="56.894561410666" lon="14.837685564269">
        <ele>178</ele>
        <time>2020-03-24T18:24:30Z</time>
      </trkpt>
      <trkpt lat="56.894632153902" lon="14.837343750387">
        <ele>178.4</ele>
        <time>2020-03-24T18:24:35Z</time>
      </trkpt>
      <trkpt lat="56.894755703108" lon="14.837024651454">
        <ele>179.2</ele>
        <time>2020-03-24T18:24:41Z</time>
      </trkpt>
      <trkpt lat="56.894753691452" lon="14.836675964414">
        <ele>179</ele>
        <time>2020-03-24T18:24:46Z</time>
      </trkpt>
      <trkpt lat="56.894751009244" lon="14.836276566879">
        <ele>178.2</ele>
        <time>2020-03-24T18:24:52Z</time>
      </trkpt>
      <trkpt lat="56.894756122203" lon="14.836164417057">
        <ele>177.6</ele>
        <time>2020-03-24T18:24:56Z</time>
      </trkpt>
      <trkpt lat="56.894746985932" lon="14.83604849538">
        <ele>177.4</ele>
        <time>2020-03-24T18:25:02Z</time>
      </trkpt>
      <trkpt lat="56.89471614054" lon="14.836026367164">
        <ele>177.4</ele>
        <time>2020-03-24T18:25:05Z</time>
      </trkpt>
      <trkpt lat="56.89453425331" lon="14.836110018526">
        <ele>178</ele>
        <time>2020-03-24T18:25:17Z</time>
      </trkpt>
      <trkpt lat="56.894445237532" lon="14.836166093437">
        <ele>177.6</ele>
        <time>2020-03-24T18:25:25Z</time>
      </trkpt>
      <trkpt lat="56.894380110169" lon="14.836175229708">
        <ele>177.2</ele>
        <time>2020-03-24T18:25:30Z</time>
      </trkpt>
      <trkpt lat="56.894339374135" lon="14.836171793129">
        <ele>177.4</ele>
        <time>2020-03-24T18:25:34Z</time>
      </trkpt>
      <trkpt lat="56.894326130733" lon="14.836151341293">
        <ele>177.4</ele>
        <time>2020-03-24T18:25:36Z</time>
      </trkpt>
      <trkpt lat="56.894307355277" lon="14.836137594977">
        <ele>177.4</ele>
        <time>2020-03-24T18:25:41Z</time>
      </trkpt>
      <trkpt lat="56.894246335045" lon="14.836159807012">
        <ele>177.2</ele>
        <time>2020-03-24T18:25:47Z</time>
      </trkpt>
      <trkpt lat="56.894051958784" lon="14.836286792797">
        <ele>176.8</ele>
        <time>2020-03-24T18:25:53Z</time>
      </trkpt>
      <trkpt lat="56.89390393443" lon="14.836517378866">
        <ele>177</ele>
        <time>2020-03-24T18:25:58Z</time>
      </trkpt>
      <trkpt lat="56.893741074113" lon="14.83674167851">
        <ele>177.4</ele>
        <time>2020-03-24T18:26:03Z</time>
      </trkpt>
      <trkpt lat="56.893584248764" lon="14.836918788057">
        <ele>177.4</ele>
        <time>2020-03-24T18:26:08Z</time>
      </trkpt>
      <trkpt lat="56.893464639051" lon="14.837210645815">
        <ele>178</ele>
        <time>2020-03-24T18:26:13Z</time>
      </trkpt>
      <trkpt lat="56.893394566367" lon="14.837285747639">
        <ele>178.2</ele>
        <time>2020-03-24T18:26:15Z</time>
      </trkpt>
      <trkpt lat="56.893206811807" lon="14.837473669837">
        <ele>178.2</ele>
        <time>2020-03-24T18:26:20Z</time>
      </trkpt>
      <trkpt lat="56.89307831728" lon="14.837733844013">
        <ele>177.8</ele>
        <time>2020-03-24T18:26:24Z</time>
      </trkpt>
      <trkpt lat="56.892957869377" lon="14.837979098407">
        <ele>177.8</ele>
        <time>2020-03-24T18:26:28Z</time>
      </trkpt>
      <trkpt lat="56.89281344924" lon="14.838269195966">
        <ele>177.8</ele>
        <time>2020-03-24T18:26:33Z</time>
      </trkpt>
      <trkpt lat="56.892652600579" lon="14.838489807574">
        <ele>178</ele>
        <time>2020-03-24T18:26:38Z</time>
      </trkpt>
      <trkpt lat="56.892490578452" lon="14.838670269881">
        <ele>177.8</ele>
        <time>2020-03-24T18:26:43Z</time>
      </trkpt>
      <trkpt lat="56.892325706479" lon="14.838879733562">
        <ele>178.8</ele>
        <time>2020-03-24T18:26:49Z</time>
      </trkpt>
      <trkpt lat="56.892155050995" lon="14.838947543133">
        <ele>177.2</ele>
        <time>2020-03-24T18:26:54Z</time>
      </trkpt>
      <trkpt lat="56.891957321974" lon="14.83894276545">
        <ele>177.4</ele>
        <time>2020-03-24T18:26:58Z</time>
      </trkpt>
      <trkpt lat="56.891858247916" lon="14.838929857324">
        <ele>177.6</ele>
        <time>2020-03-24T18:27:00Z</time>
      </trkpt>
      <trkpt lat="56.891678875256" lon="14.838920301958">
        <ele>178</ele>
        <time>2020-03-24T18:27:04Z</time>
      </trkpt>
      <trkpt lat="56.891486929746" lon="14.839025410984">
        <ele>178.2</ele>
        <time>2020-03-24T18:27:10Z</time>
      </trkpt>
      <trkpt lat="56.891440074925" lon="14.839078468411">
        <ele>178.6</ele>
        <time>2020-03-24T18:27:12Z</time>
      </trkpt>
      <trkpt lat="56.891337815745" lon="14.839175698451">
        <ele>179.8</ele>
        <time>2020-03-24T18:27:16Z</time>
      </trkpt>
      <trkpt lat="56.891262965378" lon="14.839244430031">
        <ele>180.8</ele>
        <time>2020-03-24T18:27:19Z</time>
      </trkpt>
      <trkpt lat="56.891183085871" lon="14.839319196579">
        <ele>182</ele>
        <time>2020-03-24T18:27:22Z</time>
      </trkpt>
      <trkpt lat="56.891013520034" lon="14.839500245619">
        <ele>182.8</ele>
        <time>2020-03-24T18:27:27Z</time>
      </trkpt>
      <trkpt lat="56.890950069051" lon="14.839575515081">
        <ele>183</ele>
        <time>2020-03-24T18:27:29Z</time>
      </trkpt>
      <trkpt lat="56.890772624228" lon="14.839725215815">
        <ele>182.4</ele>
        <time>2020-03-24T18:27:34Z</time>
      </trkpt>
      <trkpt lat="56.890561903262" lon="14.839767460591">
        <ele>183</ele>
        <time>2020-03-24T18:27:39Z</time>
      </trkpt>
      <trkpt lat="56.890379596937" lon="14.839859158577">
        <ele>182.4</ele>
        <time>2020-03-24T18:27:45Z</time>
      </trkpt>
      <trkpt lat="56.890170803808" lon="14.839964686698">
        <ele>182.4</ele>
        <time>2020-03-24T18:27:51Z</time>
      </trkpt>
      <trkpt lat="56.890094109423" lon="14.840014978098">
        <ele>182</ele>
        <time>2020-03-24T18:27:53Z</time>
      </trkpt>
      <trkpt lat="56.8899501922" lon="14.840145987195">
        <ele>180.8</ele>
        <time>2020-03-24T18:27:57Z</time>
      </trkpt>
      <trkpt lat="56.889778279431" lon="14.840295771748">
        <ele>180</ele>
        <time>2020-03-24T18:28:02Z</time>
      </trkpt>
      <trkpt lat="56.889712313878" lon="14.840358384541">
        <ele>179.6</ele>
        <time>2020-03-24T18:28:04Z</time>
      </trkpt>
      <trkpt lat="56.889530594286" lon="14.840495344787">
        <ele>179.6</ele>
        <time>2020-03-24T18:28:09Z</time>
      </trkpt>
      <trkpt lat="56.889345605753" lon="14.840658875656">
        <ele>179.6</ele>
        <time>2020-03-24T18:28:14Z</time>
      </trkpt>
      <trkpt lat="56.889205376566" lon="14.840712268359">
        <ele>178.6</ele>
        <time>2020-03-24T18:28:18Z</time>
      </trkpt>
      <trkpt lat="56.889005049156" lon="14.840843528913">
        <ele>178.4</ele>
        <time>2020-03-24T18:28:23Z</time>
      </trkpt>
      <trkpt lat="56.888809164153" lon="14.840934975442">
        <ele>179.8</ele>
        <time>2020-03-24T18:28:29Z</time>
      </trkpt>
      <trkpt lat="56.888767422291" lon="14.840971939621">
        <ele>181</ele>
        <time>2020-03-24T18:28:31Z</time>
      </trkpt>
      <trkpt lat="56.888718723452" lon="14.84100219828">
        <ele>182</ele>
        <time>2020-03-24T18:28:33Z</time>
      </trkpt>
      <trkpt lat="56.8886426158" lon="14.841027260161">
        <ele>183.4</ele>
        <time>2020-03-24T18:28:36Z</time>
      </trkpt>
      <trkpt lat="56.888515378558" lon="14.841081323416">
        <ele>184.6</ele>
        <time>2020-03-24T18:28:40Z</time>
      </trkpt>
      <trkpt lat="56.888334664794" lon="14.841066319815">
        <ele>183.6</ele>
        <time>2020-03-24T18:28:46Z</time>
      </trkpt>
      <trkpt lat="56.888263586282" lon="14.840993648742">
        <ele>183.6</ele>
        <time>2020-03-24T18:28:52Z</time>
      </trkpt>
      <trkpt lat="56.888198291281" lon="14.840908153362">
        <ele>183.4</ele>
        <time>2020-03-24T18:28:58Z</time>
      </trkpt>
      <trkpt lat="56.888068874745" lon="14.840672370515">
        <ele>182.8</ele>
        <time>2020-03-24T18:29:09Z</time>
      </trkpt>
      <trkpt lat="56.888054876972" lon="14.84063507106">
        <ele>182.6</ele>
        <time>2020-03-24T18:29:11Z</time>
      </trkpt>
      <trkpt lat="56.888045489244" lon="14.840613194301">
        <ele>182.4</ele>
        <time>2020-03-24T18:29:13Z</time>
      </trkpt>
      <trkpt lat="56.888036185335" lon="14.840587126592">
        <ele>182.4</ele>
        <time>2020-03-24T18:29:15Z</time>
      </trkpt>
      <trkpt lat="56.888021852286" lon="14.840539601219">
        <ele>182.4</ele>
        <time>2020-03-24T18:29:18Z</time>
      </trkpt>
      <trkpt lat="56.888002657735" lon="14.840566507118">
        <ele>182.4</ele>
        <time>2020-03-24T18:29:23Z</time>
      </trkpt>
      <trkpt lat="56.88799888588" lon="14.840603136021">
        <ele>182.4</ele>
        <time>2020-03-24T18:29:25Z</time>
      </trkpt>
      <trkpt lat="56.888000478441" lon="14.840637753268">
        <ele>182.4</ele>
        <time>2020-03-24T18:29:27Z</time>
      </trkpt>
      <trkpt lat="56.887999304975" lon="14.840673208705">
        <ele>182.4</ele>
        <time>2020-03-24T18:29:29Z</time>
      </trkpt>
      <trkpt lat="56.888023109571" lon="14.84071721368">
        <ele>182.4</ele>
        <time>2020-03-24T18:29:31Z</time>
      </trkpt>
      <trkpt lat="56.888034592774" lon="14.840757782076">
        <ele>182.4</ele>
        <time>2020-03-24T18:29:33Z</time>
      </trkpt>
      <trkpt lat="56.888050769841" lon="14.840809079304">
        <ele>182.4</ele>
        <time>2020-03-24T18:29:35Z</time>
      </trkpt>
      <trkpt lat="56.888060325207" lon="14.84083623666">
        <ele>182.4</ele>
        <time>2020-03-24T18:29:37Z</time>
      </trkpt>
      <trkpt lat="56.88808521945" lon="14.840853754831">
        <ele>182.6</ele>
        <time>2020-03-24T18:29:40Z</time>
      </trkpt>
      <trkpt lat="56.888120758706" lon="14.84085970598">
        <ele>182.6</ele>
        <time>2020-03-24T18:29:43Z</time>
      </trkpt>
      <trkpt lat="56.888133080099" lon="14.840879906359">
        <ele>182.8</ele>
        <time>2020-03-24T18:29:45Z</time>
      </trkpt>
      <trkpt lat="56.888143725112" lon="14.840913014864">
        <ele>182.8</ele>
        <time>2020-03-24T18:29:47Z</time>
      </trkpt>
      <trkpt lat="56.888270962354" lon="14.84110278108">
        <ele>183.6</ele>
        <time>2020-03-24T18:29:52Z</time>
      </trkpt>
      <trkpt lat="56.88847162504" lon="14.841136811594">
        <ele>184.8</ele>
        <time>2020-03-24T18:29:58Z</time>
      </trkpt>
      <trkpt lat="56.888655859202" lon="14.841042515219">
        <ele>184.6</ele>
        <time>2020-03-24T18:30:03Z</time>
      </trkpt>
      <trkpt lat="56.888807403954" lon="14.840930700673">
        <ele>183.4</ele>
        <time>2020-03-24T18:30:06Z</time>
      </trkpt>
      <trkpt lat="56.888859036458" lon="14.840900609652">
        <ele>182.4</ele>
        <time>2020-03-24T18:30:07Z</time>
      </trkpt>
      <trkpt lat="56.888908154392" lon="14.840882169472">
        <ele>181</ele>
        <time>2020-03-24T18:30:08Z</time>
      </trkpt>
      <trkpt lat="56.888988620632" lon="14.84084797132">
        <ele>179.2</ele>
        <time>2020-03-24T18:30:10Z</time>
      </trkpt>
      <trkpt lat="56.889183835083" lon="14.840769097641">
        <ele>179</ele>
        <time>2020-03-24T18:30:16Z</time>
      </trkpt>
      <trkpt lat="56.889367231055" lon="14.840585953126">
        <ele>179.4</ele>
        <time>2020-03-24T18:30:22Z</time>
      </trkpt>
      <trkpt lat="56.889569318664" lon="14.840410855235">
        <ele>179.4</ele>
        <time>2020-03-24T18:30:27Z</time>
      </trkpt>
      <trkpt lat="56.889743662184" lon="14.840249838936">
        <ele>179.4</ele>
        <time>2020-03-24T18:30:31Z</time>
      </trkpt>
      <trkpt lat="56.889884478104" lon="14.840130648318">
        <ele>180.4</ele>
        <time>2020-03-24T18:30:35Z</time>
      </trkpt>
      <trkpt lat="56.889946923259" lon="14.840087146257">
        <ele>181.6</ele>
        <time>2020-03-24T18:30:37Z</time>
      </trkpt>
      <trkpt lat="56.890093187414" lon="14.840017073573">
        <ele>182.6</ele>
        <time>2020-03-24T18:30:41Z</time>
      </trkpt>
      <trkpt lat="56.89030893752" lon="14.839958484092">
        <ele>182.8</ele>
        <time>2020-03-24T18:30:46Z</time>
      </trkpt>
      <trkpt lat="56.890498871374" lon="14.839888495227">
        <ele>182.4</ele>
        <time>2020-03-24T18:30:52Z</time>
      </trkpt>
      <trkpt lat="56.890702467725" lon="14.839785230219">
        <ele>182.6</ele>
        <time>2020-03-24T18:30:57Z</time>
      </trkpt>
      <trkpt lat="56.890891228113" lon="14.839626225576">
        <ele>183</ele>
        <time>2020-03-24T18:31:03Z</time>
      </trkpt>
      <trkpt lat="56.891059620484" lon="14.839471411883">
        <ele>183</ele>
        <time>2020-03-24T18:31:08Z</time>
      </trkpt>
      <trkpt lat="56.891160119465" lon="14.839344677555">
        <ele>181.6</ele>
        <time>2020-03-24T18:31:11Z</time>
      </trkpt>
      <trkpt lat="56.891250811623" lon="14.839194390088">
        <ele>180.6</ele>
        <time>2020-03-24T18:31:14Z</time>
      </trkpt>
      <trkpt lat="56.891375701933" lon="14.839025913898">
        <ele>179.4</ele>
        <time>2020-03-24T18:31:18Z</time>
      </trkpt>
      <trkpt lat="56.891473518706" lon="14.838956930861">
        <ele>178.2</ele>
        <time>2020-03-24T18:31:21Z</time>
      </trkpt>
      <trkpt lat="56.891665631854" lon="14.838918877035">
        <ele>178.4</ele>
        <time>2020-03-24T18:31:27Z</time>
      </trkpt>
      <trkpt lat="56.891857996459" lon="14.838942681631">
        <ele>178.2</ele>
        <time>2020-03-24T18:31:33Z</time>
      </trkpt>
      <trkpt lat="56.892048265589" lon="14.838861963934">
        <ele>178</ele>
        <time>2020-03-24T18:31:38Z</time>
      </trkpt>
      <trkpt lat="56.892225207498" lon="14.838695331762">
        <ele>178.4</ele>
        <time>2020-03-24T18:31:43Z</time>
      </trkpt>
      <trkpt lat="56.892397287905" lon="14.838554767299">
        <ele>178</ele>
        <time>2020-03-24T18:31:48Z</time>
      </trkpt>
      <trkpt lat="56.892422098329" lon="14.838519311862">
        <ele>178</ele>
        <time>2020-03-24T18:31:50Z</time>
      </trkpt>
      <trkpt lat="56.892485800769" lon="14.838389979145">
        <ele>177.8</ele>
        <time>2020-03-24T18:31:58Z</time>
      </trkpt>
      <trkpt lat="56.892453781911" lon="14.83844152783">
        <ele>177.8</ele>
        <time>2020-03-24T18:32:07Z</time>
      </trkpt>
      <trkpt lat="56.892440538509" lon="14.838472037946">
        <ele>178</ele>
        <time>2020-03-24T18:32:09Z</time>
      </trkpt>
      <trkpt lat="56.892431150781" lon="14.838511768152">
        <ele>178</ele>
        <time>2020-03-24T18:32:11Z</time>
      </trkpt>
      <trkpt lat="56.892407597642" lon="14.838570357633">
        <ele>178.2</ele>
        <time>2020-03-24T18:32:14Z</time>
      </trkpt>
      <trkpt lat="56.892384798874" lon="14.838625510535">
        <ele>178.4</ele>
        <time>2020-03-24T18:32:17Z</time>
      </trkpt>
      <trkpt lat="56.892367280703" lon="14.838698684522">
        <ele>178.6</ele>
        <time>2020-03-24T18:32:20Z</time>
      </trkpt>
      <trkpt lat="56.892377171345" lon="14.838696002314">
        <ele>178.6</ele>
        <time>2020-03-24T18:32:25Z</time>
      </trkpt>
      <trkpt lat="56.892390079471" lon="14.838682172179">
        <ele>178.4</ele>
        <time>2020-03-24T18:32:26Z</time>
      </trkpt>
      <trkpt lat="56.892443891269" lon="14.838612267133">
        <ele>178.4</ele>
        <time>2020-03-24T18:32:32Z</time>
      </trkpt>
      <trkpt lat="56.892482867104" lon="14.83858402013">
        <ele>178.2</ele>
        <time>2020-03-24T18:32:37Z</time>
      </trkpt>
      <trkpt lat="56.892492841565" lon="14.838545631028">
        <ele>178.2</ele>
        <time>2020-03-24T18:32:40Z</time>
      </trkpt>
      <trkpt lat="56.892582276438" lon="14.838366593644">
        <ele>177.4</ele>
        <time>2020-03-24T18:32:48Z</time>
      </trkpt>
      <trkpt lat="56.892756871415" lon="14.838112286798">
        <ele>177.4</ele>
        <time>2020-03-24T18:32:53Z</time>
      </trkpt>
      <trkpt lat="56.892781933296" lon="14.83805176948">
        <ele>177.8</ele>
        <time>2020-03-24T18:32:54Z</time>
      </trkpt>
      <trkpt lat="56.892928616546" lon="14.837855800658">
        <ele>178</ele>
        <time>2020-03-24T18:32:58Z</time>
      </trkpt>
      <trkpt lat="56.892987541303" lon="14.837751026908">
        <ele>178.2</ele>
        <time>2020-03-24T18:33:00Z</time>
      </trkpt>
      <trkpt lat="56.893083514058" lon="14.837610462445">
        <ele>178.2</ele>
        <time>2020-03-24T18:33:03Z</time>
      </trkpt>
      <trkpt lat="56.893243608348" lon="14.837409129207">
        <ele>178.6</ele>
        <time>2020-03-24T18:33:07Z</time>
      </trkpt>
      <trkpt lat="56.893278057957" lon="14.837359675997">
        <ele>178.4</ele>
        <time>2020-03-24T18:33:08Z</time>
      </trkpt>
      <trkpt lat="56.893375539454" lon="14.837195809852">
        <ele>178.4</ele>
        <time>2020-03-24T18:33:11Z</time>
      </trkpt>
      <trkpt lat="56.893447707613" lon="14.837059101063">
        <ele>178.4</ele>
        <time>2020-03-24T18:33:13Z</time>
      </trkpt>
      <trkpt lat="56.893546362576" lon="14.836894396728">
        <ele>178.2</ele>
        <time>2020-03-24T18:33:16Z</time>
      </trkpt>
      <trkpt lat="56.893610316473" lon="14.836821809474">
        <ele>177.8</ele>
        <time>2020-03-24T18:33:18Z</time>
      </trkpt>
      <trkpt lat="56.893793544807" lon="14.836615447096">
        <ele>177.6</ele>
        <time>2020-03-24T18:33:23Z</time>
      </trkpt>
      <trkpt lat="56.893971576363" lon="14.836390225443">
        <ele>177.4</ele>
        <time>2020-03-24T18:33:28Z</time>
      </trkpt>
      <trkpt lat="56.894078445588" lon="14.836309256289">
        <ele>177.4</ele>
        <time>2020-03-24T18:33:31Z</time>
      </trkpt>
      <trkpt lat="56.894224458286" lon="14.836252846102">
        <ele>177.2</ele>
        <time>2020-03-24T18:33:35Z</time>
      </trkpt>
      <trkpt lat="56.894403411851" lon="14.836178331011">
        <ele>177.4</ele>
        <time>2020-03-24T18:33:39Z</time>
      </trkpt>
      <trkpt lat="56.894522183374" lon="14.836125525041">
        <ele>177.8</ele>
        <time>2020-03-24T18:33:42Z</time>
      </trkpt>
      <trkpt lat="56.89479828316" lon="14.835929807676">
        <ele>177.8</ele>
        <time>2020-03-24T18:33:55Z</time>
      </trkpt>
      <trkpt lat="56.894813538218" lon="14.835904997252">
        <ele>177.8</ele>
        <time>2020-03-24T18:33:57Z</time>
      </trkpt>
      <trkpt lat="56.894807167974" lon="14.835862501019">
        <ele>178</ele>
        <time>2020-03-24T18:34:00Z</time>
      </trkpt>
      <trkpt lat="56.894833570959" lon="14.83588085738">
        <ele>177.8</ele>
        <time>2020-03-24T18:34:04Z</time>
      </trkpt>
      <trkpt lat="56.894780094437" lon="14.835935675006">
        <ele>177.8</ele>
        <time>2020-03-24T18:34:10Z</time>
      </trkpt>
      <trkpt lat="56.894651096996" lon="14.836058218384">
        <ele>178.2</ele>
        <time>2020-03-24T18:34:18Z</time>
      </trkpt>
      <trkpt lat="56.894476669657" lon="14.836158717365">
        <ele>178.8</ele>
        <time>2020-03-24T18:34:31Z</time>
      </trkpt>
      <trkpt lat="56.89444205241" lon="14.836164919971">
        <ele>178.8</ele>
        <time>2020-03-24T18:34:35Z</time>
      </trkpt>
      <trkpt lat="56.894273157125" lon="14.836174559156">
        <ele>178.2</ele>
        <time>2020-03-24T18:34:47Z</time>
      </trkpt>
      <trkpt lat="56.894098645967" lon="14.8359294724">
        <ele>178</ele>
        <time>2020-03-24T18:34:53Z</time>
      </trkpt>
      <trkpt lat="56.893980880272" lon="14.835789829946">
        <ele>177.8</ele>
        <time>2020-03-24T18:34:56Z</time>
      </trkpt>
      <trkpt lat="56.893800501784" lon="14.835574247478">
        <ele>177.8</ele>
        <time>2020-03-24T18:35:01Z</time>
      </trkpt>
      <trkpt lat="56.893724813227" lon="14.835494032695">
        <ele>177.8</ele>
        <time>2020-03-24T18:35:03Z</time>
      </trkpt>
      <trkpt lat="56.893573519932" lon="14.835303847384">
        <ele>178.6</ele>
        <time>2020-03-24T18:35:07Z</time>
      </trkpt>
      <trkpt lat="56.893500010669" lon="14.835220782755">
        <ele>178.6</ele>
        <time>2020-03-24T18:35:09Z</time>
      </trkpt>
      <trkpt lat="56.893418957696" lon="14.835143082542">
        <ele>178.6</ele>
        <time>2020-03-24T18:35:11Z</time>
      </trkpt>
      <trkpt lat="56.893370761771" lon="14.835069908555">
        <ele>178.2</ele>
        <time>2020-03-24T18:35:13Z</time>
      </trkpt>
      <trkpt lat="56.893323236398" lon="14.834944347693">
        <ele>178.2</ele>
        <time>2020-03-24T18:35:15Z</time>
      </trkpt>
      <trkpt lat="56.893317871982" lon="14.834771345277">
        <ele>178.2</ele>
        <time>2020-03-24T18:35:17Z</time>
      </trkpt>
      <trkpt lat="56.893317955801" lon="14.834532461127">
        <ele>178.4</ele>
        <time>2020-03-24T18:35:20Z</time>
      </trkpt>
      <trkpt lat="56.893294067386" lon="14.834410420663">
        <ele>178.4</ele>
        <time>2020-03-24T18:35:22Z</time>
      </trkpt>
      <trkpt lat="56.893160795176" lon="14.834153012514">
        <ele>178.6</ele>
        <time>2020-03-24T18:35:28Z</time>
      </trkpt>
      <trkpt lat="56.893038670893" lon="14.83392033097">
        <ele>179.4</ele>
        <time>2020-03-24T18:35:33Z</time>
      </trkpt>
      <trkpt lat="56.892885617399" lon="14.833732744048">
        <ele>179.6</ele>
        <time>2020-03-24T18:35:37Z</time>
      </trkpt>
      <trkpt lat="56.892702137608" lon="14.833610368308">
        <ele>179.8</ele>
        <time>2020-03-24T18:35:42Z</time>
      </trkpt>
      <trkpt lat="56.892590323062" lon="14.833541972004">
        <ele>180.4</ele>
        <time>2020-03-24T18:35:45Z</time>
      </trkpt>
      <trkpt lat="56.892412207687" lon="14.833501990341">
        <ele>181</ele>
        <time>2020-03-24T18:35:51Z</time>
      </trkpt>
      <trkpt lat="56.892374405318" lon="14.833522274539">
        <ele>181.8</ele>
        <time>2020-03-24T18:35:53Z</time>
      </trkpt>
      <trkpt lat="56.892306595747" lon="14.833537110502">
        <ele>183</ele>
        <time>2020-03-24T18:35:56Z</time>
      </trkpt>
      <trkpt lat="56.892230069" lon="14.833554628673">
        <ele>184</ele>
        <time>2020-03-24T18:35:59Z</time>
      </trkpt>
      <trkpt lat="56.892050612521" lon="14.833612296145">
        <ele>184.4</ele>
        <time>2020-03-24T18:36:04Z</time>
      </trkpt>
      <trkpt lat="56.891867719463" lon="14.833702653027">
        <ele>184</ele>
        <time>2020-03-24T18:36:09Z</time>
      </trkpt>
      <trkpt lat="56.891679461989" lon="14.833805834216">
        <ele>184.6</ele>
        <time>2020-03-24T18:36:15Z</time>
      </trkpt>
      <trkpt lat="56.891570748746" lon="14.833838355988">
        <ele>185.2</ele>
        <time>2020-03-24T18:36:18Z</time>
      </trkpt>
      <trkpt lat="56.891446696626" lon="14.833876074538">
        <ele>185.8</ele>
        <time>2020-03-24T18:36:23Z</time>
      </trkpt>
      <trkpt lat="56.891327003094" lon="14.833894514718">
        <ele>186.4</ele>
        <time>2020-03-24T18:36:27Z</time>
      </trkpt>
      <trkpt lat="56.891109744246" lon="14.833803738741">
        <ele>186.6</ele>
        <time>2020-03-24T18:36:33Z</time>
      </trkpt>
      <trkpt lat="56.890976472036" lon="14.833745484536">
        <ele>185.4</ele>
        <time>2020-03-24T18:36:36Z</time>
      </trkpt>
      <trkpt lat="56.89082107161" lon="14.833668538694">
        <ele>184</ele>
        <time>2020-03-24T18:36:40Z</time>
      </trkpt>
      <trkpt lat="56.89062493515" lon="14.83351045606">
        <ele>183.2</ele>
        <time>2020-03-24T18:36:45Z</time>
      </trkpt>
      <trkpt lat="56.890583528564" lon="14.833458823556">
        <ele>183</ele>
        <time>2020-03-24T18:36:46Z</time>
      </trkpt>
      <trkpt lat="56.890423182817" lon="14.833288587167">
        <ele>181.8</ele>
        <time>2020-03-24T18:36:50Z</time>
      </trkpt>
      <trkpt lat="56.890357720178" lon="14.833183310503">
        <ele>180.4</ele>
        <time>2020-03-24T18:36:52Z</time>
      </trkpt>
      <trkpt lat="56.890291670806" lon="14.833086667196">
        <ele>178.8</ele>
        <time>2020-03-24T18:36:54Z</time>
      </trkpt>
      <trkpt lat="56.890175413853" lon="14.832855913489">
        <ele>177.6</ele>
        <time>2020-03-24T18:36:59Z</time>
      </trkpt>
      <trkpt lat="56.890154878198" lon="14.832800676768">
        <ele>178.8</ele>
        <time>2020-03-24T18:37:00Z</time>
      </trkpt>
      <trkpt lat="56.890074998691" lon="14.832641336849">
        <ele>179.8</ele>
        <time>2020-03-24T18:37:04Z</time>
      </trkpt>
      <trkpt lat="56.890060498004" lon="14.832616023511">
        <ele>178.4</ele>
        <time>2020-03-24T18:37:05Z</time>
      </trkpt>
      <trkpt lat="56.889915994048" lon="14.832354843507">
        <ele>179</ele>
        <time>2020-03-24T18:37:11Z</time>
      </trkpt>
      <trkpt lat="56.889757576138" lon="14.832115456443">
        <ele>179.4</ele>
        <time>2020-03-24T18:37:16Z</time>
      </trkpt>
      <trkpt lat="56.88973477737" lon="14.832080336282">
        <ele>179.4</ele>
        <time>2020-03-24T18:37:17Z</time>
      </trkpt>
      <trkpt lat="56.889623968652" lon="14.831898784328">
        <ele>180</ele>
        <time>2020-03-24T18:37:21Z</time>
      </trkpt>
      <trkpt lat="56.889457252661" lon="14.831721171867">
        <ele>179.6</ele>
        <time>2020-03-24T18:37:25Z</time>
      </trkpt>
      <trkpt lat="56.88933160798" lon="14.831612458624">
        <ele>177.6</ele>
        <time>2020-03-24T18:37:28Z</time>
      </trkpt>
      <trkpt lat="56.889249549179" lon="14.83154322413">
        <ele>175.6</ele>
        <time>2020-03-24T18:37:30Z</time>
      </trkpt>
      <trkpt lat="56.889174698812" lon="14.831475917473">
        <ele>175</ele>
        <time>2020-03-24T18:37:32Z</time>
      </trkpt>
      <trkpt lat="56.889053412719" lon="14.831397798165">
        <ele>174.4</ele>
        <time>2020-03-24T18:37:35Z</time>
      </trkpt>
      <trkpt lat="56.889004043328" lon="14.831371059904">
        <ele>174.2</ele>
        <time>2020-03-24T18:37:36Z</time>
      </trkpt>
      <trkpt lat="56.88888904366" lon="14.831223203188">
        <ele>173</ele>
        <time>2020-03-24T18:37:39Z</time>
      </trkpt>
      <trkpt lat="56.888813858017" lon="14.831122620388">
        <ele>171.8</ele>
        <time>2020-03-24T18:37:41Z</time>
      </trkpt>
      <trkpt lat="56.88873733127" lon="14.831020780303">
        <ele>171</ele>
        <time>2020-03-24T18:37:43Z</time>
      </trkpt>
      <trkpt lat="56.888702630204" lon="14.83097074036">
        <ele>170.4</ele>
        <time>2020-03-24T18:37:44Z</time>
      </trkpt>
      <trkpt lat="56.888636161737" lon="14.830881473125">
        <ele>169.8</ele>
        <time>2020-03-24T18:37:46Z</time>
      </trkpt>
      <trkpt lat="56.888594419875" lon="14.830832690467">
        <ele>169.4</ele>
        <time>2020-03-24T18:37:48Z</time>
      </trkpt>
      <trkpt lat="56.888464332787" lon="14.830743423232">
        <ele>168.4</ele>
        <time>2020-03-24T18:38:01Z</time>
      </trkpt>
      <trkpt lat="56.888443713313" lon="14.830762701602">
        <ele>168.2</ele>
        <time>2020-03-24T18:38:03Z</time>
      </trkpt>
      <trkpt lat="56.888392416085" lon="14.830770915864">
        <ele>168.2</ele>
        <time>2020-03-24T18:38:07Z</time>
      </trkpt>
      <trkpt lat="56.888343130513" lon="14.830810813708">
        <ele>168</ele>
        <time>2020-03-24T18:38:11Z</time>
      </trkpt>
      <trkpt lat="56.888335251527" lon="14.830781728515">
        <ele>168</ele>
        <time>2020-03-24T18:38:13Z</time>
      </trkpt>
      <trkpt lat="56.88834254378" lon="14.830734286961">
        <ele>168</ele>
        <time>2020-03-24T18:38:16Z</time>
      </trkpt>
      <trkpt lat="56.88835176387" lon="14.830719870093">
        <ele>168</ele>
        <time>2020-03-24T18:38:18Z</time>
      </trkpt>
      <trkpt lat="56.888377077208" lon="14.830718780446">
        <ele>168.2</ele>
        <time>2020-03-24T18:38:20Z</time>
      </trkpt>
      <trkpt lat="56.888402642003" lon="14.830707045786">
        <ele>168.4</ele>
        <time>2020-03-24T18:38:22Z</time>
      </trkpt>
      <trkpt lat="56.888455531792" lon="14.830679217878">
        <ele>168.4</ele>
        <time>2020-03-24T18:38:27Z</time>
      </trkpt>
      <trkpt lat="56.888490232858" lon="14.830674943109">
        <ele>168.6</ele>
        <time>2020-03-24T18:38:32Z</time>
      </trkpt>
      <trkpt lat="56.888591737667" lon="14.830660358603">
        <ele>168.8</ele>
        <time>2020-03-24T18:38:45Z</time>
      </trkpt>
      <trkpt lat="56.888620655222" lon="14.830701932827">
        <ele>168.8</ele>
        <time>2020-03-24T18:38:47Z</time>
      </trkpt>
      <trkpt lat="56.888711515018" lon="14.830867726809">
        <ele>169.4</ele>
        <time>2020-03-24T18:38:51Z</time>
      </trkpt>
      <trkpt lat="56.888830705636" lon="14.831071909893">
        <ele>170.6</ele>
        <time>2020-03-24T18:38:56Z</time>
      </trkpt>
      <trkpt lat="56.888907232383" lon="14.831176180729">
        <ele>171.8</ele>
        <time>2020-03-24T18:38:59Z</time>
      </trkpt>
      <trkpt lat="56.88897956818" lon="14.831277853176">
        <ele>173.4</ele>
        <time>2020-03-24T18:39:02Z</time>
      </trkpt>
      <trkpt lat="56.889069673605" lon="14.831389751541">
        <ele>174.4</ele>
        <time>2020-03-24T18:39:05Z</time>
      </trkpt>
      <trkpt lat="56.889249213903" lon="14.831516234412">
        <ele>175.2</ele>
        <time>2020-03-24T18:39:10Z</time>
      </trkpt>
      <trkpt lat="56.889304115348" lon="14.831548085632">
        <ele>175.8</ele>
        <time>2020-03-24T18:39:12Z</time>
      </trkpt>
      <trkpt lat="56.889377624611" lon="14.83161866123">
        <ele>177</ele>
        <time>2020-03-24T18:39:15Z</time>
      </trkpt>
      <trkpt lat="56.889451133874" lon="14.831672975942">
        <ele>178.2</ele>
        <time>2020-03-24T18:39:17Z</time>
      </trkpt>
      <trkpt lat="56.889517099427" lon="14.831700720031">
        <ele>179.6</ele>
        <time>2020-03-24T18:39:19Z</time>
      </trkpt>
      <trkpt lat="56.889590860147" lon="14.83174355154">
        <ele>181</ele>
        <time>2020-03-24T18:39:22Z</time>
      </trkpt>
      <trkpt lat="56.889774339938" lon="14.831965504252">
        <ele>180.8</ele>
        <time>2020-03-24T18:39:28Z</time>
      </trkpt>
      <trkpt lat="56.889894117289" lon="14.832248477196">
        <ele>180.2</ele>
        <time>2020-03-24T18:39:35Z</time>
      </trkpt>
      <trkpt lat="56.889909204709" lon="14.832345874874">
        <ele>179</ele>
        <time>2020-03-24T18:39:37Z</time>
      </trkpt>
      <trkpt lat="56.889923705396" lon="14.83239733974">
        <ele>178</ele>
        <time>2020-03-24T18:39:38Z</time>
      </trkpt>
      <trkpt lat="56.890053541027" lon="14.83266807511">
        <ele>178</ele>
        <time>2020-03-24T18:39:44Z</time>
      </trkpt>
      <trkpt lat="56.890167199591" lon="14.832889189632">
        <ele>178.2</ele>
        <time>2020-03-24T18:39:49Z</time>
      </trkpt>
      <trkpt lat="56.890333664125" lon="14.833073256156">
        <ele>178.8</ele>
        <time>2020-03-24T18:39:54Z</time>
      </trkpt>
      <trkpt lat="56.890402730981" lon="14.833160847011">
        <ele>179.4</ele>
        <time>2020-03-24T18:39:56Z</time>
      </trkpt>
      <trkpt lat="56.890485711791" lon="14.833239636871">
        <ele>180.4</ele>
        <time>2020-03-24T18:39:59Z</time>
      </trkpt>
      <trkpt lat="56.890556957941" lon="14.833332927418">
        <ele>181.6</ele>
        <time>2020-03-24T18:40:02Z</time>
      </trkpt>
      <trkpt lat="56.890627365901" lon="14.833447424172">
        <ele>183</ele>
        <time>2020-03-24T18:40:05Z</time>
      </trkpt>
      <trkpt lat="56.890808582579" lon="14.833644147365">
        <ele>184.2</ele>
        <time>2020-03-24T18:40:11Z</time>
      </trkpt>
      <trkpt lat="56.891004551401" lon="14.833795692117">
        <ele>185.4</ele>
        <time>2020-03-24T18:40:17Z</time>
      </trkpt>
      <trkpt lat="56.891147798072" lon="14.833902058428">
        <ele>186.8</ele>
        <time>2020-03-24T18:40:22Z</time>
      </trkpt>
      <trkpt lat="56.891342844885" lon="14.833907003749">
        <ele>187.2</ele>
        <time>2020-03-24T18:40:28Z</time>
      </trkpt>
      <trkpt lat="56.891526408495" lon="14.833854533055">
        <ele>186.4</ele>
        <time>2020-03-24T18:40:33Z</time>
      </trkpt>
      <trkpt lat="56.891640905249" lon="14.833778425403">
        <ele>185.6</ele>
        <time>2020-03-24T18:40:37Z</time>
      </trkpt>
      <trkpt lat="56.891832683121" lon="14.833657474586">
        <ele>185</ele>
        <time>2020-03-24T18:40:43Z</time>
      </trkpt>
      <trkpt lat="56.891956232327" lon="14.833611206498">
        <ele>184.6</ele>
        <time>2020-03-24T18:40:46Z</time>
      </trkpt>
      <trkpt lat="56.892007529555" lon="14.833587318083">
        <ele>184.8</ele>
        <time>2020-03-24T18:40:48Z</time>
      </trkpt>
      <trkpt lat="56.892095204229" lon="14.833580109649">
        <ele>185.6</ele>
        <time>2020-03-24T18:40:55Z</time>
      </trkpt>
      <trkpt lat="56.892131749313" lon="14.833586479893">
        <ele>185.8</ele>
        <time>2020-03-24T18:40:58Z</time>
      </trkpt>
      <trkpt lat="56.892122361585" lon="14.833588910644">
        <ele>185.8</ele>
        <time>2020-03-24T18:41:02Z</time>
      </trkpt>
      <trkpt lat="56.892107441803" lon="14.833584635875">
        <ele>185.8</ele>
        <time>2020-03-24T18:41:04Z</time>
      </trkpt>
      <trkpt lat="56.892052624177" lon="14.833581953667">
        <ele>185.4</ele>
        <time>2020-03-24T18:41:10Z</time>
      </trkpt>
      <trkpt lat="56.892028819581" lon="14.833573236491">
        <ele>185.2</ele>
        <time>2020-03-24T18:41:13Z</time>
      </trkpt>
      <trkpt lat="56.891967883168" lon="14.833587401902">
        <ele>184.8</ele>
        <time>2020-03-24T18:41:18Z</time>
      </trkpt>
      <trkpt lat="56.891949862083" lon="14.833593101594">
        <ele>184.8</ele>
        <time>2020-03-24T18:41:20Z</time>
      </trkpt>
      <trkpt lat="56.891918513777" lon="14.833623192615">
        <ele>184.6</ele>
        <time>2020-03-24T18:41:23Z</time>
      </trkpt>
      <trkpt lat="56.891895966466" lon="14.833647500125">
        <ele>184.6</ele>
        <time>2020-03-24T18:41:26Z</time>
      </trkpt>
      <trkpt lat="56.891889596222" lon="14.83367557949">
        <ele>184.8</ele>
        <time>2020-03-24T18:41:29Z</time>
      </trkpt>
      <trkpt lat="56.891916250664" lon="14.833654540921">
        <ele>184.8</ele>
        <time>2020-03-24T18:41:33Z</time>
      </trkpt>
      <trkpt lat="56.89193837888" lon="14.833632412705">
        <ele>184.8</ele>
        <time>2020-03-24T18:41:35Z</time>
      </trkpt>
      <trkpt lat="56.89196352458" lon="14.833616570914">
        <ele>184.8</ele>
        <time>2020-03-24T18:41:37Z</time>
      </trkpt>
      <trkpt lat="56.89224934737" lon="14.83353727814">
        <ele>185.4</ele>
        <time>2020-03-24T18:41:51Z</time>
      </trkpt>
      <trkpt lat="56.89238178139" lon="14.833465612895">
        <ele>184</ele>
        <time>2020-03-24T18:41:54Z</time>
      </trkpt>
      <trkpt lat="56.892414889895" lon="14.833459913203">
        <ele>183.4</ele>
        <time>2020-03-24T18:41:55Z</time>
      </trkpt>
      <trkpt lat="56.892452021712" lon="14.833465109981">
        <ele>182.8</ele>
        <time>2020-03-24T18:41:56Z</time>
      </trkpt>
      <trkpt lat="56.892506001148" lon="14.833474916804">
        <ele>182.4</ele>
        <time>2020-03-24T18:41:57Z</time>
      </trkpt>
      <trkpt lat="56.892543468241" lon="14.833500565418">
        <ele>181.8</ele>
        <time>2020-03-24T18:41:58Z</time>
      </trkpt>
      <trkpt lat="56.892629298897" lon="14.833551359732">
        <ele>181.2</ele>
        <time>2020-03-24T18:42:00Z</time>
      </trkpt>
      <trkpt lat="56.892664502877" lon="14.833587904816">
        <ele>181.2</ele>
        <time>2020-03-24T18:42:01Z</time>
      </trkpt>
      <trkpt lat="56.892767181152" lon="14.833649176505">
        <ele>181</ele>
        <time>2020-03-24T18:42:03Z</time>
      </trkpt>
      <trkpt lat="56.892891903824" lon="14.833754285531">
        <ele>180.8</ele>
        <time>2020-03-24T18:42:06Z</time>
      </trkpt>
      <trkpt lat="56.893044035309" lon="14.8340016354">
        <ele>181.2</ele>
        <time>2020-03-24T18:42:11Z</time>
      </trkpt>
      <trkpt lat="56.893112934527" lon="14.834092327558">
        <ele>180.8</ele>
        <time>2020-03-24T18:42:13Z</time>
      </trkpt>
      <trkpt lat="56.893190131826" lon="14.834193916186">
        <ele>180.4</ele>
        <time>2020-03-24T18:42:15Z</time>
      </trkpt>
      <trkpt lat="56.893215445164" lon="14.834246051604">
        <ele>179.8</ele>
        <time>2020-03-24T18:42:16Z</time>
      </trkpt>
      <trkpt lat="56.893236399914" lon="14.834309670225">
        <ele>179.4</ele>
        <time>2020-03-24T18:42:17Z</time>
      </trkpt>
      <trkpt lat="56.89327696831" lon="14.834460041511">
        <ele>179</ele>
        <time>2020-03-24T18:42:19Z</time>
      </trkpt>
      <trkpt lat="56.893282332726" lon="14.834545285434">
        <ele>178.8</ele>
        <time>2020-03-24T18:42:20Z</time>
      </trkpt>
      <trkpt lat="56.893300269992" lon="14.834844686902">
        <ele>179.2</ele>
        <time>2020-03-24T18:42:24Z</time>
      </trkpt>
      <trkpt lat="56.893406384846" lon="14.835109387304">
        <ele>179</ele>
        <time>2020-03-24T18:42:29Z</time>
      </trkpt>
      <trkpt lat="56.893596570157" lon="14.835293789104">
        <ele>178.6</ele>
        <time>2020-03-24T18:42:34Z</time>
      </trkpt>
      <trkpt lat="56.893780301405" lon="14.835480621655">
        <ele>178.2</ele>
        <time>2020-03-24T18:42:39Z</time>
      </trkpt>
      <trkpt lat="56.8939651223" lon="14.835634010425">
        <ele>178.4</ele>
        <time>2020-03-24T18:42:44Z</time>
      </trkpt>
      <trkpt lat="56.894094119741" lon="14.835843893201">
        <ele>179</ele>
        <time>2020-03-24T18:42:50Z</time>
      </trkpt>
      <trkpt lat="56.894123204934" lon="14.835890161289">
        <ele>178.8</ele>
        <time>2020-03-24T18:42:53Z</time>
      </trkpt>
      <trkpt lat="56.894234432747" lon="14.836056458185">
        <ele>178.4</ele>
        <time>2020-03-24T18:43:06Z</time>
      </trkpt>
      <trkpt lat="56.894247508511" lon="14.836086130111">
        <ele>178.6</ele>
        <time>2020-03-24T18:43:09Z</time>
      </trkpt>
      <trkpt lat="56.894245999769" lon="14.836141785927">
        <ele>178.4</ele>
        <time>2020-03-24T18:43:12Z</time>
      </trkpt>
      <trkpt lat="56.894192690885" lon="14.835917821559">
        <ele>178.6</ele>
        <time>2020-03-24T18:43:47Z</time>
      </trkpt>
      <trkpt lat="56.893995716235" lon="14.835683463635">
        <ele>178.4</ele>
        <time>2020-03-24T18:43:52Z</time>
      </trkpt>
      <trkpt lat="56.893830676624" lon="14.835501241129">
        <ele>178.8</ele>
        <time>2020-03-24T18:43:57Z</time>
      </trkpt>
      <trkpt lat="56.893652980344" lon="14.835365957263">
        <ele>178.2</ele>
        <time>2020-03-24T18:44:03Z</time>
      </trkpt>
      <trkpt lat="56.893481151394" lon="14.8351918652">
        <ele>179.6</ele>
        <time>2020-03-24T18:44:08Z</time>
      </trkpt>
      <trkpt lat="56.893329690461" lon="14.834934457051">
        <ele>179.2</ele>
        <time>2020-03-24T18:44:13Z</time>
      </trkpt>
      <trkpt lat="56.893331869755" lon="14.834554924619">
        <ele>178.8</ele>
        <time>2020-03-24T18:44:18Z</time>
      </trkpt>
      <trkpt lat="56.893242686339" lon="14.834178074395">
        <ele>178.8</ele>
        <time>2020-03-24T18:44:24Z</time>
      </trkpt>
      <trkpt lat="56.893150485439" lon="14.834041952339">
        <ele>180</ele>
        <time>2020-03-24T18:44:28Z</time>
      </trkpt>
      <trkpt lat="56.893030624269" lon="14.833784460371">
        <ele>180.4</ele>
        <time>2020-03-24T18:44:33Z</time>
      </trkpt>
      <trkpt lat="56.89299617466" lon="14.833423116662">
        <ele>180.2</ele>
        <time>2020-03-24T18:44:39Z</time>
      </trkpt>
      <trkpt lat="56.893172446017" lon="14.833364443362">
        <ele>179.8</ele>
        <time>2020-03-24T18:44:46Z</time>
      </trkpt>
      <trkpt lat="56.893354668523" lon="14.833519759969">
        <ele>179.6</ele>
        <time>2020-03-24T18:44:53Z</time>
      </trkpt>
      <trkpt lat="56.893478217729" lon="14.833617660561">
        <ele>178.8</ele>
        <time>2020-03-24T18:44:56Z</time>
      </trkpt>
      <trkpt lat="56.893557259046" lon="14.833680943906">
        <ele>177.8</ele>
        <time>2020-03-24T18:44:58Z</time>
      </trkpt>
      <trkpt lat="56.893709977264" lon="14.833760152861">
        <ele>176.6</ele>
        <time>2020-03-24T18:45:02Z</time>
      </trkpt>
      <trkpt lat="56.893905694629" lon="14.833775575557">
        <ele>176.6</ele>
        <time>2020-03-24T18:45:08Z</time>
      </trkpt>
      <trkpt lat="56.894119181622" lon="14.833667365228">
        <ele>177.4</ele>
        <time>2020-03-24T18:45:13Z</time>
      </trkpt>
      <trkpt lat="56.89431632391" lon="14.833485729455">
        <ele>176.4</ele>
        <time>2020-03-24T18:45:17Z</time>
      </trkpt>
      <trkpt lat="56.894425540067" lon="14.83331180503">
        <ele>175.6</ele>
        <time>2020-03-24T18:45:20Z</time>
      </trkpt>
      <trkpt lat="56.894544227771" lon="14.83306453898">
        <ele>175.4</ele>
        <time>2020-03-24T18:45:24Z</time>
      </trkpt>
      <trkpt lat="56.89468931846" lon="14.832759856915">
        <ele>174.6</ele>
        <time>2020-03-24T18:45:29Z</time>
      </trkpt>
      <trkpt lat="56.894714547979" lon="14.832698333769">
        <ele>174.4</ele>
        <time>2020-03-24T18:45:30Z</time>
      </trkpt>
      <trkpt lat="56.894875564278" lon="14.832532204511">
        <ele>173.6</ele>
        <time>2020-03-24T18:45:35Z</time>
      </trkpt>
      <trkpt lat="56.895130625495" lon="14.832509992476">
        <ele>174.4</ele>
        <time>2020-03-24T18:45:42Z</time>
      </trkpt>
      <trkpt lat="56.89519474703" lon="14.832523319697">
        <ele>175.4</ele>
        <time>2020-03-24T18:45:45Z</time>
      </trkpt>
      <trkpt lat="56.895400019761" lon="14.832482248387">
        <ele>176.6</ele>
        <time>2020-03-24T18:45:52Z</time>
      </trkpt>
      <trkpt lat="56.895608226157" lon="14.832362554855">
        <ele>176.6</ele>
        <time>2020-03-24T18:45:57Z</time>
      </trkpt>
      <trkpt lat="56.895817857476" lon="14.83227328762">
        <ele>176.2</ele>
        <time>2020-03-24T18:46:02Z</time>
      </trkpt>
      <trkpt lat="56.896003265104" lon="14.832247974282">
        <ele>175.6</ele>
        <time>2020-03-24T18:46:07Z</time>
      </trkpt>
      <trkpt lat="56.896188924189" lon="14.832186618774">
        <ele>176.4</ele>
        <time>2020-03-24T18:46:12Z</time>
      </trkpt>
      <trkpt lat="56.896364776451" lon="14.832024177552">
        <ele>176.8</ele>
        <time>2020-03-24T18:46:17Z</time>
      </trkpt>
      <trkpt lat="56.896566361146" lon="14.831885540926">
        <ele>177.2</ele>
        <time>2020-03-24T18:46:22Z</time>
      </trkpt>
      <trkpt lat="56.896762749063" lon="14.831727458292">
        <ele>176.8</ele>
        <time>2020-03-24T18:46:27Z</time>
      </trkpt>
      <trkpt lat="56.896912533616" lon="14.831542469759">
        <ele>176.4</ele>
        <time>2020-03-24T18:46:31Z</time>
      </trkpt>
      <trkpt lat="56.897068772232" lon="14.831301909229">
        <ele>176.4</ele>
        <time>2020-03-24T18:46:37Z</time>
      </trkpt>
      <trkpt lat="56.897260382466" lon="14.831180958412">
        <ele>177.2</ele>
        <time>2020-03-24T18:46:43Z</time>
      </trkpt>
      <trkpt lat="56.897421482584" lon="14.83106377945">
        <ele>177.8</ele>
        <time>2020-03-24T18:46:48Z</time>
      </trkpt>
      <trkpt lat="56.897453333804" lon="14.831039807216">
        <ele>178</ele>
        <time>2020-03-24T18:46:50Z</time>
      </trkpt>
      <trkpt lat="56.897562382323" lon="14.830926567747">
        <ele>177.4</ele>
        <time>2020-03-24T18:46:59Z</time>
      </trkpt>
      <trkpt lat="56.897641591278" lon="14.830896644364">
        <ele>177.2</ele>
        <time>2020-03-24T18:47:04Z</time>
      </trkpt>
      <trkpt lat="56.897662629847" lon="14.830846436783">
        <ele>177</ele>
        <time>2020-03-24T18:47:07Z</time>
      </trkpt>
      <trkpt lat="56.897673693955" lon="14.830773933348">
        <ele>176.8</ele>
        <time>2020-03-24T18:47:11Z</time>
      </trkpt>
      <trkpt lat="56.897683500778" lon="14.830766892552">
        <ele>176.8</ele>
        <time>2020-03-24T18:47:12Z</time>
      </trkpt>
      <trkpt lat="56.897685260977" lon="14.830748284734">
        <ele>176.6</ele>
        <time>2020-03-24T18:47:14Z</time>
      </trkpt>
      <trkpt lat="56.897663468037" lon="14.83076454562">
        <ele>176.4</ele>
        <time>2020-03-24T18:47:17Z</time>
      </trkpt>
      <trkpt lat="56.897613092818" lon="14.830833947752">
        <ele>176.6</ele>
        <time>2020-03-24T18:47:23Z</time>
      </trkpt>
      <trkpt lat="56.897592557163" lon="14.830858674357">
        <ele>176.8</ele>
        <time>2020-03-24T18:47:25Z</time>
      </trkpt>
      <trkpt lat="56.897572524422" lon="14.830872169216">
        <ele>177</ele>
        <time>2020-03-24T18:47:27Z</time>
      </trkpt>
      <trkpt lat="56.89751318057" lon="14.830945343203">
        <ele>177.4</ele>
        <time>2020-03-24T18:47:34Z</time>
      </trkpt>
      <trkpt lat="56.897500440082" lon="14.830958670424">
        <ele>177.4</ele>
        <time>2020-03-24T18:47:37Z</time>
      </trkpt>
      <trkpt lat="56.897489627431" lon="14.830967890514">
        <ele>177.6</ele>
        <time>2020-03-24T18:47:39Z</time>
      </trkpt>
      <trkpt lat="56.89747294745" lon="14.830999909372">
        <ele>177.6</ele>
        <time>2020-03-24T18:47:42Z</time>
      </trkpt>
      <trkpt lat="56.897443024067" lon="14.831023462511">
        <ele>177.4</ele>
        <time>2020-03-24T18:47:45Z</time>
      </trkpt>
      <trkpt lat="56.897422907507" lon="14.831047183288">
        <ele>177.2</ele>
        <time>2020-03-24T18:47:47Z</time>
      </trkpt>
      <trkpt lat="56.897234566214" lon="14.831211719985">
        <ele>177.4</ele>
        <time>2020-03-24T18:47:53Z</time>
      </trkpt>
      <trkpt lat="56.897034741718" lon="14.831312973337">
        <ele>177.2</ele>
        <time>2020-03-24T18:47:58Z</time>
      </trkpt>
      <trkpt lat="56.897001130299" lon="14.831350608068">
        <ele>177</ele>
        <time>2020-03-24T18:47:59Z</time>
      </trkpt>
      <trkpt lat="56.896837431792" lon="14.83154490051">
        <ele>176.4</ele>
        <time>2020-03-24T18:48:04Z</time>
      </trkpt>
      <trkpt lat="56.896648084671" lon="14.831735085821">
        <ele>176.6</ele>
        <time>2020-03-24T18:48:10Z</time>
      </trkpt>
      <trkpt lat="56.896459408102" lon="14.831855785181">
        <ele>176.6</ele>
        <time>2020-03-24T18:48:15Z</time>
      </trkpt>
      <trkpt lat="56.89628942317" lon="14.832018896955">
        <ele>176</ele>
        <time>2020-03-24T18:48:20Z</time>
      </trkpt>
      <trkpt lat="56.89624835186" lon="14.832042030999">
        <ele>175.6</ele>
        <time>2020-03-24T18:48:21Z</time>
      </trkpt>
      <trkpt lat="56.896058585644" lon="14.832114450615">
        <ele>176.2</ele>
        <time>2020-03-24T18:48:25Z</time>
      </trkpt>
      <trkpt lat="56.895846439755" lon="14.832247974282">
        <ele>176</ele>
        <time>2020-03-24T18:48:30Z</time>
      </trkpt>
      <trkpt lat="56.895644100689" lon="14.832404967269">
        <ele>177</ele>
        <time>2020-03-24T18:48:35Z</time>
      </trkpt>
      <trkpt lat="56.89546883516" lon="14.832545447913">
        <ele>177.4</ele>
        <time>2020-03-24T18:48:40Z</time>
      </trkpt>
      <trkpt lat="56.89525006757" lon="14.83257755059">
        <ele>175.6</ele>
        <time>2020-03-24T18:48:45Z</time>
      </trkpt>
      <trkpt lat="56.895118890835" lon="14.832590207259">
        <ele>174.6</ele>
        <time>2020-03-24T18:48:48Z</time>
      </trkpt>
      <trkpt lat="56.894907164041" lon="14.832687269661">
        <ele>173.8</ele>
        <time>2020-03-24T18:48:53Z</time>
      </trkpt>
      <trkpt lat="56.894867433835" lon="14.832710738981">
        <ele>173.4</ele>
        <time>2020-03-24T18:48:54Z</time>
      </trkpt>
      <trkpt lat="56.894724187164" lon="14.832937385557">
        <ele>174.8</ele>
        <time>2020-03-24T18:49:00Z</time>
      </trkpt>
      <trkpt lat="56.894568870557" lon="14.833184903064">
        <ele>175.6</ele>
        <time>2020-03-24T18:49:06Z</time>
      </trkpt>
      <trkpt lat="56.89441523033" lon="14.833403335378">
        <ele>175.6</ele>
        <time>2020-03-24T18:49:11Z</time>
      </trkpt>
      <trkpt lat="56.894289669468" lon="14.833557478519">
        <ele>175.6</ele>
        <time>2020-03-24T18:49:15Z</time>
      </trkpt>
      <trkpt lat="56.894255219859" lon="14.833579439097">
        <ele>177.6</ele>
        <time>2020-03-24T18:49:16Z</time>
      </trkpt>
      <trkpt lat="56.894066375652" lon="14.833684380485">
        <ele>177.8</ele>
        <time>2020-03-24T18:49:21Z</time>
      </trkpt>
      <trkpt lat="56.893871915572" lon="14.833691756557">
        <ele>178</ele>
        <time>2020-03-24T18:49:26Z</time>
      </trkpt>
      <trkpt lat="56.893664044452" lon="14.833673400196">
        <ele>177.6</ele>
        <time>2020-03-24T18:49:31Z</time>
      </trkpt>
      <trkpt lat="56.893514678994" lon="14.833593688327">
        <ele>178.6</ele>
        <time>2020-03-24T18:49:36Z</time>
      </trkpt>
      <trkpt lat="56.893377718748" lon="14.833482963428">
        <ele>179.8</ele>
        <time>2020-03-24T18:49:40Z</time>
      </trkpt>
      <trkpt lat="56.89311184488" lon="14.833349272123">
        <ele>180.8</ele>
        <time>2020-03-24T18:49:48Z</time>
      </trkpt>
      <trkpt lat="56.893077395271" lon="14.833349607399">
        <ele>181.2</ele>
        <time>2020-03-24T18:49:51Z</time>
      </trkpt>
      <trkpt lat="56.893063397498" lon="14.83336125824">
        <ele>181.6</ele>
        <time>2020-03-24T18:49:55Z</time>
      </trkpt>
      <trkpt lat="56.89308167004" lon="14.833358073118">
        <ele>181.6</ele>
        <time>2020-03-24T18:49:57Z</time>
      </trkpt>
      <trkpt lat="56.893104468808" lon="14.833354887996">
        <ele>181.6</ele>
        <time>2020-03-24T18:49:59Z</time>
      </trkpt>
      <trkpt lat="56.893130704155" lon="14.833348517752">
        <ele>181.2</ele>
        <time>2020-03-24T18:50:02Z</time>
      </trkpt>
      <trkpt lat="56.893274537559" lon="14.833407442509">
        <ele>181.4</ele>
        <time>2020-03-24T18:50:16Z</time>
      </trkpt>
      <trkpt lat="56.893294318843" lon="14.833418506617">
        <ele>181.4</ele>
        <time>2020-03-24T18:50:18Z</time>
      </trkpt>
      <trkpt lat="56.893360284396" lon="14.833418590436">
        <ele>181.4</ele>
        <time>2020-03-24T18:50:23Z</time>
      </trkpt>
      <trkpt lat="56.893399846964" lon="14.833420434454">
        <ele>181.2</ele>
        <time>2020-03-24T18:50:28Z</time>
      </trkpt>
      <trkpt lat="56.893431111451" lon="14.83342076973">
        <ele>181.2</ele>
        <time>2020-03-24T18:50:31Z</time>
      </trkpt>
      <trkpt lat="56.893446031233" lon="14.833434935141">
        <ele>181</ele>
        <time>2020-03-24T18:50:33Z</time>
      </trkpt>
      <trkpt lat="56.89343119527" lon="14.833424709223">
        <ele>181</ele>
        <time>2020-03-24T18:50:35Z</time>
      </trkpt>
      <trkpt lat="56.893397416213" lon="14.833411968735">
        <ele>181</ele>
        <time>2020-03-24T18:50:38Z</time>
      </trkpt>
      <trkpt lat="56.893379395128" lon="14.833404173568">
        <ele>181</ele>
        <time>2020-03-24T18:50:40Z</time>
      </trkpt>
      <trkpt lat="56.893361122586" lon="14.833400820808">
        <ele>181.2</ele>
        <time>2020-03-24T18:50:42Z</time>
      </trkpt>
      <trkpt lat="56.893314938317" lon="14.833393780012">
        <ele>181.4</ele>
        <time>2020-03-24T18:50:46Z</time>
      </trkpt>
      <trkpt lat="56.893224246159" lon="14.83332605426">
        <ele>181.2</ele>
        <time>2020-03-24T18:50:49Z</time>
      </trkpt>
      <trkpt lat="56.893059458005" lon="14.833258747603">
        <ele>181</ele>
        <time>2020-03-24T18:50:53Z</time>
      </trkpt>
      <trkpt lat="56.892987876579" lon="14.833289844452">
        <ele>181.4</ele>
        <time>2020-03-24T18:50:55Z</time>
      </trkpt>
      <trkpt lat="56.892956109178" lon="14.83339059489">
        <ele>181.8</ele>
        <time>2020-03-24T18:50:57Z</time>
      </trkpt>
      <trkpt lat="56.892972034788" lon="14.833689074349">
        <ele>182.2</ele>
        <time>2020-03-24T18:51:01Z</time>
      </trkpt>
      <trkpt lat="56.89304395149" lon="14.834004401427">
        <ele>182</ele>
        <time>2020-03-24T18:51:06Z</time>
      </trkpt>
      <trkpt lat="56.893129279232" lon="14.834253846771">
        <ele>180.8</ele>
        <time>2020-03-24T18:51:10Z</time>
      </trkpt>
      <trkpt lat="56.893172362198" lon="14.834394327415">
        <ele>180.4</ele>
        <time>2020-03-24T18:51:12Z</time>
      </trkpt>
      <trkpt lat="56.893188790722" lon="14.834477978777">
        <ele>180.2</ele>
        <time>2020-03-24T18:51:13Z</time>
      </trkpt>
      <trkpt lat="56.893221396313" lon="14.834830772948">
        <ele>180.2</ele>
        <time>2020-03-24T18:51:17Z</time>
      </trkpt>
      <trkpt lat="56.893227179824" lon="14.834896403225">
        <ele>180.2</ele>
        <time>2020-03-24T18:51:18Z</time>
      </trkpt>
      <trkpt lat="56.893309992996" lon="14.835060772284">
        <ele>180.6</ele>
        <time>2020-03-24T18:51:21Z</time>
      </trkpt>
      <trkpt lat="56.893393141444" lon="14.835149536605">
        <ele>180.8</ele>
        <time>2020-03-24T18:51:23Z</time>
      </trkpt>
      <trkpt lat="56.893588691171" lon="14.835329579817">
        <ele>180.4</ele>
        <time>2020-03-24T18:51:27Z</time>
      </trkpt>
      <trkpt lat="56.893800166508" lon="14.835505934993">
        <ele>180</ele>
        <time>2020-03-24T18:51:31Z</time>
      </trkpt>
      <trkpt lat="56.893978030426" lon="14.835659742858">
        <ele>180</ele>
        <time>2020-03-24T18:51:35Z</time>
      </trkpt>
      <trkpt lat="56.894078194131" lon="14.835724786402">
        <ele>180.2</ele>
        <time>2020-03-24T18:51:37Z</time>
      </trkpt>
      <trkpt lat="56.894171400859" lon="14.835808437764">
        <ele>180.2</ele>
        <time>2020-03-24T18:51:39Z</time>
      </trkpt>
      <trkpt lat="56.89424675414" lon="14.835916312817">
        <ele>180.2</ele>
        <time>2020-03-24T18:51:41Z</time>
      </trkpt>
      <trkpt lat="56.894340715239" lon="14.835989067709">
        <ele>179.8</ele>
        <time>2020-03-24T18:51:43Z</time>
      </trkpt>
      <trkpt lat="56.894455547269" lon="14.83601580597">
        <ele>179.6</ele>
        <time>2020-03-24T18:51:47Z</time>
      </trkpt>
      <trkpt lat="56.8944512725" lon="14.836003316939">
        <ele>180.6</ele>
        <time>2020-03-24T18:51:50Z</time>
      </trkpt>
      <trkpt lat="56.894448674111" lon="14.836017985264">
        <ele>180.4</ele>
        <time>2020-03-24T18:52:03Z</time>
      </trkpt>
      <trkpt lat="56.89443283232" lon="14.836047070457">
        <ele>180.4</ele>
        <time>2020-03-24T18:52:06Z</time>
      </trkpt>
      <trkpt lat="56.894403244213" lon="14.836095853115">
        <ele>180.4</ele>
        <time>2020-03-24T18:52:10Z</time>
      </trkpt>
      <trkpt lat="56.89438086454" lon="14.836103480644">
        <ele>180.2</ele>
        <time>2020-03-24T18:52:12Z</time>
      </trkpt>
      <trkpt lat="56.894361837627" lon="14.836103145368">
        <ele>180.2</ele>
        <time>2020-03-24T18:52:15Z</time>
      </trkpt>
      <trkpt lat="56.894322945611" lon="14.836121166453">
        <ele>180.2</ele>
        <time>2020-03-24T18:52:19Z</time>
      </trkpt>
      <trkpt lat="56.89427189984" lon="14.836080178962">
        <ele>180.4</ele>
        <time>2020-03-24T18:52:25Z</time>
      </trkpt>
      <trkpt lat="56.89426519432" lon="14.836041035489">
        <ele>180.2</ele>
        <time>2020-03-24T18:52:28Z</time>
      </trkpt>
      <trkpt lat="56.894251196547" lon="14.836047573371">
        <ele>180.2</ele>
        <time>2020-03-24T18:52:32Z</time>
      </trkpt>
      <trkpt lat="56.894248262882" lon="14.836056709642">
        <ele>178.4</ele>
        <time>2020-03-24T18:52:33Z</time>
      </trkpt>
      <trkpt lat="56.894245496855" lon="14.836062660791">
        <ele>178.4</ele>
        <time>2020-03-24T18:52:34Z</time>
      </trkpt>
      <trkpt lat="56.894234516566" lon="14.836095685477">
        <ele>178.8</ele>
        <time>2020-03-24T18:52:38Z</time>
      </trkpt>
      <trkpt lat="56.894232085815" lon="14.836114544752">
        <ele>178.6</ele>
        <time>2020-03-24T18:52:40Z</time>
      </trkpt>
      <trkpt lat="56.89422999034" lon="14.836157962994">
        <ele>178.6</ele>
        <time>2020-03-24T18:52:42Z</time>
      </trkpt>
      <trkpt lat="56.894236360584" lon="14.836191909689">
        <ele>178.6</ele>
        <time>2020-03-24T18:52:45Z</time>
      </trkpt>
      <trkpt lat="56.894240635353" lon="14.836191574413">
        <ele>178.4</ele>
        <time>2020-03-24T18:52:49Z</time>
      </trkpt>
      <trkpt lat="56.89424256319" lon="14.836191909689">
        <ele>178.2</ele>
        <time>2020-03-24T18:52:51Z</time>
      </trkpt>
      <trkpt lat="56.894345325284" lon="14.836127033783">
        <ele>178.4</ele>
        <time>2020-03-24T18:53:24Z</time>
      </trkpt>
      <trkpt lat="56.894158911828" lon="14.836001389102">
        <ele>178.8</ele>
        <time>2020-03-24T18:53:51Z</time>
      </trkpt>
      <trkpt lat="56.894104010383" lon="14.83594455982">
        <ele>178.8</ele>
        <time>2020-03-24T18:53:57Z</time>
      </trkpt>
      <trkpt lat="56.894095293207" lon="14.835940201232">
        <ele>178.6</ele>
        <time>2020-03-24T18:53:59Z</time>
      </trkpt>
      <trkpt lat="56.894043241608" lon="14.835864177399">
        <ele>178.6</ele>
        <time>2020-03-24T18:54:06Z</time>
      </trkpt>
      <trkpt lat="56.894019017917" lon="14.835833332007">
        <ele>178.6</ele>
        <time>2020-03-24T18:54:09Z</time>
      </trkpt>
      <trkpt lat="56.893738224267" lon="14.835506102631">
        <ele>177.8</ele>
        <time>2020-03-24T18:54:33Z</time>
      </trkpt>
      <trkpt lat="56.893577124149" lon="14.835297393321">
        <ele>178.4</ele>
        <time>2020-03-24T18:54:43Z</time>
      </trkpt>
      <trkpt lat="56.893415521117" lon="14.835130006778">
        <ele>178.6</ele>
        <time>2020-03-24T18:54:52Z</time>
      </trkpt>
      <trkpt lat="56.893326253882" lon="14.834979384035">
        <ele>179.8</ele>
        <time>2020-03-24T18:54:58Z</time>
      </trkpt>
      <trkpt lat="56.893319548362" lon="14.834943174227">
        <ele>180</ele>
        <time>2020-03-24T18:54:59Z</time>
      </trkpt>
      <trkpt lat="56.893330444832" lon="14.834793138217">
        <ele>178.6</ele>
        <time>2020-03-24T18:55:03Z</time>
      </trkpt>
      <trkpt lat="56.893322146751" lon="14.834452162525">
        <ele>179.6</ele>
        <time>2020-03-24T18:55:12Z</time>
      </trkpt>
      <trkpt lat="56.893315273593" lon="14.834419389296">
        <ele>179.6</ele>
        <time>2020-03-24T18:55:13Z</time>
      </trkpt>
      <trkpt lat="56.893300521449" lon="14.834366583326">
        <ele>179.8</ele>
        <time>2020-03-24T18:55:15Z</time>
      </trkpt>
      <trkpt lat="56.893284092925" lon="14.834315453736">
        <ele>180.2</ele>
        <time>2020-03-24T18:55:18Z</time>
      </trkpt>
      <trkpt lat="56.893138164046" lon="14.834097021422">
        <ele>180.6</ele>
        <time>2020-03-24T18:55:26Z</time>
      </trkpt>
      <trkpt lat="56.893121484065" lon="14.834070869894">
        <ele>180.8</ele>
        <time>2020-03-24T18:55:27Z</time>
      </trkpt>
      <trkpt lat="56.892980500507" lon="14.833800385981">
        <ele>181.4</ele>
        <time>2020-03-24T18:55:36Z</time>
      </trkpt>
      <trkpt lat="56.892827279375" lon="14.833627299746">
        <ele>181.8</ele>
        <time>2020-03-24T18:55:44Z</time>
      </trkpt>
      <trkpt lat="56.892773551396" lon="14.833588826825">
        <ele>182</ele>
        <time>2020-03-24T18:55:47Z</time>
      </trkpt>
      <trkpt lat="56.892579510411" lon="14.833526884584">
        <ele>182</ele>
        <time>2020-03-24T18:55:55Z</time>
      </trkpt>
      <trkpt lat="56.89245554211" lon="14.833535517941">
        <ele>183</ele>
        <time>2020-03-24T18:56:01Z</time>
      </trkpt>
      <trkpt lat="56.892368957083" lon="14.833567369161">
        <ele>184.2</ele>
        <time>2020-03-24T18:56:05Z</time>
      </trkpt>
      <trkpt lat="56.892265775894" lon="14.833610116851">
        <ele>185.4</ele>
        <time>2020-03-24T18:56:10Z</time>
      </trkpt>
      <trkpt lat="56.892181621618" lon="14.833612966697">
        <ele>186.4</ele>
        <time>2020-03-24T18:56:14Z</time>
      </trkpt>
      <trkpt lat="56.892109621097" lon="14.833599890933">
        <ele>186</ele>
        <time>2020-03-24T18:56:17Z</time>
      </trkpt>
      <trkpt lat="56.891939384708" lon="14.833520849616">
        <ele>186.2</ele>
        <time>2020-03-24T18:56:25Z</time>
      </trkpt>
      <trkpt lat="56.891882555426" lon="14.833328149735">
        <ele>185.4</ele>
        <time>2020-03-24T18:56:32Z</time>
      </trkpt>
      <trkpt lat="56.891879789399" lon="14.833243576364">
        <ele>184.8</ele>
        <time>2020-03-24T18:56:35Z</time>
      </trkpt>
      <trkpt lat="56.891870820766" lon="14.833204265253">
        <ele>184.2</ele>
        <time>2020-03-24T18:56:37Z</time>
      </trkpt>
      <trkpt lat="56.891868222377" lon="14.833177275535">
        <ele>183.8</ele>
        <time>2020-03-24T18:56:38Z</time>
      </trkpt>
      <trkpt lat="56.891859086106" lon="14.832914167694">
        <ele>183</ele>
        <time>2020-03-24T18:56:44Z</time>
      </trkpt>
      <trkpt lat="56.891734279615" lon="14.832638822279">
        <ele>183</ele>
        <time>2020-03-24T18:56:52Z</time>
      </trkpt>
      <trkpt lat="56.891589524202" lon="14.832430112969">
        <ele>182.8</ele>
        <time>2020-03-24T18:57:00Z</time>
      </trkpt>
      <trkpt lat="56.891471926145" lon="14.832149738414">
        <ele>182.4</ele>
        <time>2020-03-24T18:57:09Z</time>
      </trkpt>
      <trkpt lat="56.891417946709" lon="14.832060052084">
        <ele>181.8</ele>
        <time>2020-03-24T18:57:12Z</time>
      </trkpt>
      <trkpt lat="56.891288446354" lon="14.831769032516">
        <ele>181</ele>
        <time>2020-03-24T18:57:21Z</time>
      </trkpt>
      <trkpt lat="56.891233293452" lon="14.831607094208">
        <ele>181</ele>
        <time>2020-03-24T18:57:25Z</time>
      </trkpt>
      <trkpt lat="56.891208985942" lon="14.83127835609">
        <ele>181.2</ele>
        <time>2020-03-24T18:57:32Z</time>
      </trkpt>
      <trkpt lat="56.891188534106" lon="14.830925813376">
        <ele>181.6</ele>
        <time>2020-03-24T18:57:41Z</time>
      </trkpt>
      <trkpt lat="56.891175709799" lon="14.830887256636">
        <ele>181.6</ele>
        <time>2020-03-24T18:57:42Z</time>
      </trkpt>
      <trkpt lat="56.891102284355" lon="14.830572683929">
        <ele>180.6</ele>
        <time>2020-03-24T18:57:51Z</time>
      </trkpt>
      <trkpt lat="56.891052998783" lon="14.830438992624">
        <ele>179.4</ele>
        <time>2020-03-24T18:57:56Z</time>
      </trkpt>
      <trkpt lat="56.890983009918" lon="14.83032701044">
        <ele>178.2</ele>
        <time>2020-03-24T18:58:00Z</time>
      </trkpt>
      <trkpt lat="56.890897430719" lon="14.830248974951">
        <ele>177.2</ele>
        <time>2020-03-24T18:58:05Z</time>
      </trkpt>
      <trkpt lat="56.890788298381" lon="14.830158869526">
        <ele>176</ele>
        <time>2020-03-24T18:58:10Z</time>
      </trkpt>
      <trkpt lat="56.890722332828" lon="14.830117043845">
        <ele>174.6</ele>
        <time>2020-03-24T18:58:15Z</time>
      </trkpt>
      <trkpt lat="56.89070372501" lon="14.830036326148">
        <ele>174.2</ele>
        <time>2020-03-24T18:58:18Z</time>
      </trkpt>
      <trkpt lat="56.890688553771" lon="14.829972539889">
        <ele>174.2</ele>
        <time>2020-03-24T18:58:20Z</time>
      </trkpt>
      <trkpt lat="56.890546396747" lon="14.829729045694">
        <ele>173.8</ele>
        <time>2020-03-24T18:58:31Z</time>
      </trkpt>
      <trkpt lat="56.89048831018" lon="14.829676491181">
        <ele>173.6</ele>
        <time>2020-03-24T18:58:35Z</time>
      </trkpt>
      <trkpt lat="56.890458302978" lon="14.829623433754">
        <ele>173</ele>
        <time>2020-03-24T18:58:38Z</time>
      </trkpt>
      <trkpt lat="56.890435336572" lon="14.829561323875">
        <ele>172.4</ele>
        <time>2020-03-24T18:58:41Z</time>
      </trkpt>
      <trkpt lat="56.890425278292" lon="14.829505165145">
        <ele>171.6</ele>
        <time>2020-03-24T18:58:43Z</time>
      </trkpt>
      <trkpt lat="56.89042460774" lon="14.829476079952">
        <ele>171.2</ele>
        <time>2020-03-24T18:58:44Z</time>
      </trkpt>
      <trkpt lat="56.890419746238" lon="14.829400056119">
        <ele>171</ele>
        <time>2020-03-24T18:58:46Z</time>
      </trkpt>
      <trkpt lat="56.890413375994" lon="14.829333168557">
        <ele>170.8</ele>
        <time>2020-03-24T18:58:48Z</time>
      </trkpt>
      <trkpt lat="56.890379764575" lon="14.829208948799">
        <ele>170</ele>
        <time>2020-03-24T18:58:51Z</time>
      </trkpt>
      <trkpt lat="56.8903776691" lon="14.829170727335">
        <ele>169.6</ele>
        <time>2020-03-24T18:58:52Z</time>
      </trkpt>
      <trkpt lat="56.890384961353" lon="14.829077185331">
        <ele>169</ele>
        <time>2020-03-24T18:58:55Z</time>
      </trkpt>
      <trkpt lat="56.890376747091" lon="14.829040221152">
        <ele>169</ele>
        <time>2020-03-24T18:58:56Z</time>
      </trkpt>
      <trkpt lat="56.89031731942" lon="14.828698910184">
        <ele>168.4</ele>
        <time>2020-03-24T18:59:04Z</time>
      </trkpt>
      <trkpt lat="56.890278092128" lon="14.828566057069">
        <ele>169</ele>
        <time>2020-03-24T18:59:09Z</time>
      </trkpt>
      <trkpt lat="56.890188321979" lon="14.828323317245">
        <ele>168.6</ele>
        <time>2020-03-24T18:59:16Z</time>
      </trkpt>
      <trkpt lat="56.890196536241" lon="14.828114775573">
        <ele>167.8</ele>
        <time>2020-03-24T18:59:21Z</time>
      </trkpt>
      <trkpt lat="56.890235260619" lon="14.828055599359">
        <ele>167.8</ele>
        <time>2020-03-24T18:59:23Z</time>
      </trkpt>
      <trkpt lat="56.89020919291" lon="14.827713114925">
        <ele>168.2</ele>
        <time>2020-03-24T18:59:28Z</time>
      </trkpt>
      <trkpt lat="56.89021170748" lon="14.827677910945">
        <ele>168.2</ele>
        <time>2020-03-24T18:59:29Z</time>
      </trkpt>
      <trkpt lat="56.890250850953" lon="14.827333331036">
        <ele>167.6</ele>
        <time>2020-03-24T18:59:40Z</time>
      </trkpt>
      <trkpt lat="56.890294520652" lon="14.826985398367">
        <ele>167.4</ele>
        <time>2020-03-24T18:59:49Z</time>
      </trkpt>
      <trkpt lat="56.890303573104" lon="14.826646266693">
        <ele>167.6</ele>
        <time>2020-03-24T18:59:57Z</time>
      </trkpt>
      <trkpt lat="56.890330143727" lon="14.826308057028">
        <ele>168.4</ele>
        <time>2020-03-24T19:00:04Z</time>
      </trkpt>
      <trkpt lat="56.890399126764" lon="14.825961633101">
        <ele>168</ele>
        <time>2020-03-24T19:00:12Z</time>
      </trkpt>
      <trkpt lat="56.890457800064" lon="14.825662315452">
        <ele>169</ele>
        <time>2020-03-24T19:00:19Z</time>
      </trkpt>
      <trkpt lat="56.890582858012" lon="14.825421671103">
        <ele>169</ele>
        <time>2020-03-24T19:00:27Z</time>
      </trkpt>
      <trkpt lat="56.890711101082" lon="14.825160742556">
        <ele>169.2</ele>
        <time>2020-03-24T19:00:35Z</time>
      </trkpt>
      <trkpt lat="56.890820820153" lon="14.824880870915">
        <ele>169.8</ele>
        <time>2020-03-24T19:00:44Z</time>
      </trkpt>
      <trkpt lat="56.890842277817" lon="14.82483602775">
        <ele>170</ele>
        <time>2020-03-24T19:00:46Z</time>
      </trkpt>
      <trkpt lat="56.890889635552" lon="14.824758159899">
        <ele>171.2</ele>
        <time>2020-03-24T19:00:50Z</time>
      </trkpt>
      <trkpt lat="56.890961133159" lon="14.824698983685">
        <ele>172.6</ele>
        <time>2020-03-24T19:00:54Z</time>
      </trkpt>
      <trkpt lat="56.891014358224" lon="14.824637795815">
        <ele>173.8</ele>
        <time>2020-03-24T19:00:57Z</time>
      </trkpt>
      <trkpt lat="56.891141511647" lon="14.824388518109">
        <ele>173.8</ele>
        <time>2020-03-24T19:01:05Z</time>
      </trkpt>
      <trkpt lat="56.891291966752" lon="14.824182826283">
        <ele>173.8</ele>
        <time>2020-03-24T19:01:20Z</time>
      </trkpt>
      <trkpt lat="56.891292553485" lon="14.824160949524">
        <ele>173.6</ele>
        <time>2020-03-24T19:01:21Z</time>
      </trkpt>
    </trkseg>
  </trk>
</gpx>